AFL142 VTSP-ULLI
Flight info
| Callsign | AFL142 |
|---|---|
| Flight time | 9h 22m |
| Altitude | 34000 |
| Route | UPSAB1A UPSAB L515 OBMOG M770 KAKID M875 LEBIB A466 SITAX M875 AMDAR/K0909F340 M875 MILSO M161 DENUD T784 ROKUR P164 PINOK N50 GENPA GENPA1V |
| Aircraft | B77W/H-SDE1E2E3FGHIJ2J3J4J5M1RWXY/LB1D1 |
Departure
| Time | 2026-05-06 10:59 |
|---|---|
| Airport | Phuket International Airport (VTSP) |
Arrival
| Time | 2026-05-06 20:21 |
|---|---|
| Airport | Pulkovo Airport (ULLI) |
| Time | Latitude | Longitude | Altitude | Speed | Heading |
|---|---|---|---|---|---|
| 2026-05-06 10:33 | 8.10587 | 98.30449 | 32 ft | 0 kts | 105° |
| 2026-05-06 10:45 | 8.10589 | 98.30442 | 32 ft | 4 kts | 100° |
| 2026-05-06 10:45 | 8.10592 | 98.30420 | 32 ft | 3 kts | 142° |
| 2026-05-06 10:45 | 8.10606 | 98.30408 | 28 ft | 3 kts | 128° |
| 2026-05-06 10:46 | 8.10615 | 98.30393 | 30 ft | 4 kts | 70° |
| 2026-05-06 10:46 | 8.10612 | 98.30376 | 28 ft | 4 kts | 32° |
| 2026-05-06 10:46 | 8.10602 | 98.30374 | 29 ft | 4 kts | 13° |
| 2026-05-06 10:46 | 8.10580 | 98.30369 | 31 ft | 2 kts | 14° |
| 2026-05-06 10:47 | 8.10558 | 98.30363 | 31 ft | 4 kts | 14° |
| 2026-05-06 10:47 | 8.10533 | 98.30357 | 31 ft | 2 kts | 14° |
| 2026-05-06 10:47 | 8.10532 | 98.30356 | 31 ft | 0 kts | 14° |
| 2026-05-06 10:51 | 8.10546 | 98.30360 | 31 ft | 7 kts | 14° |
| 2026-05-06 10:51 | 8.10624 | 98.30380 | 27 ft | 15 kts | 14° |
| 2026-05-06 10:51 | 8.10728 | 98.30377 | 31 ft | 15 kts | 340° |
| 2026-05-06 10:52 | 8.10831 | 98.30362 | 31 ft | 15 kts | 12° |
| 2026-05-06 10:52 | 8.10934 | 98.30388 | 31 ft | 15 kts | 14° |
| 2026-05-06 10:52 | 8.11039 | 98.30398 | 31 ft | 15 kts | 347° |
| 2026-05-06 10:52 | 8.11060 | 98.30384 | 31 ft | 4 kts | 308° |
| 2026-05-06 10:53 | 8.11081 | 98.30361 | 31 ft | 4 kts | 317° |
| 2026-05-06 10:53 | 8.11126 | 98.30348 | 31 ft | 15 kts | 353° |
| 2026-05-06 10:53 | 8.11203 | 98.30433 | 32 ft | 20 kts | 82° |
| 2026-05-06 10:53 | 8.11206 | 98.30461 | 32 ft | 0 kts | 83° |
| 2026-05-06 10:58 | 8.11221 | 98.30589 | 32 ft | 59 kts | 84° |
| 2026-05-06 10:58 | 8.11289 | 98.31337 | 37 ft | 154 kts | 84° |
| 2026-05-06 10:59 | 8.11393 | 98.32678 | 244 ft | 223 kts | 86° |
| 2026-05-06 10:59 | 8.11540 | 98.34214 | 1587 ft | 214 kts | 85° |
| 2026-05-06 10:59 | 8.11678 | 98.35664 | 2983 ft | 202 kts | 83° |
| 2026-05-06 10:59 | 8.11819 | 98.37115 | 3411 ft | 219 kts | 84° |
| 2026-05-06 11:00 | 8.11974 | 98.38726 | 3719 ft | 239 kts | 83° |
| 2026-05-06 11:00 | 8.12140 | 98.40433 | 4326 ft | 247 kts | 84° |
| 2026-05-06 11:00 | 8.12306 | 98.42177 | 5029 ft | 251 kts | 84° |
| 2026-05-06 11:00 | 8.12472 | 98.43938 | 5751 ft | 254 kts | 84° |
| 2026-05-06 11:01 | 8.12640 | 98.45724 | 6444 ft | 257 kts | 84° |
| 2026-05-06 11:01 | 8.12811 | 98.47539 | 7077 ft | 262 kts | 84° |
| 2026-05-06 11:01 | 8.12985 | 98.49396 | 7640 ft | 270 kts | 84° |
| 2026-05-06 11:01 | 8.13164 | 98.51313 | 8227 ft | 277 kts | 84° |
| 2026-05-06 11:02 | 8.13346 | 98.53261 | 8942 ft | 280 kts | 85° |
| 2026-05-06 11:02 | 8.13530 | 98.55225 | 9674 ft | 283 kts | 85° |
| 2026-05-06 11:02 | 8.13761 | 98.57203 | 10235 ft | 286 kts | 77° |
| 2026-05-06 11:02 | 8.14622 | 98.59068 | 10406 ft | 306 kts | 50° |
| 2026-05-06 11:03 | 8.16241 | 98.60466 | 10841 ft | 317 kts | 33° |
| 2026-05-06 11:03 | 8.18273 | 98.61391 | 11389 ft | 326 kts | 14° |
| 2026-05-06 11:03 | 8.20544 | 98.61635 | 11977 ft | 331 kts | 3° |
| 2026-05-06 11:03 | 8.22863 | 98.61629 | 12659 ft | 335 kts | 1° |
| 2026-05-06 11:04 | 8.25203 | 98.61618 | 13372 ft | 337 kts | 1° |
| 2026-05-06 11:04 | 8.27558 | 98.61659 | 13994 ft | 340 kts | 3° |
| 2026-05-06 11:04 | 8.29936 | 98.61732 | 14589 ft | 344 kts | 4° |
| 2026-05-06 11:04 | 8.32335 | 98.61772 | 15147 ft | 345 kts | 357° |
| 2026-05-06 11:05 | 8.34667 | 98.61132 | 15499 ft | 356 kts | 329° |
| 2026-05-06 11:05 | 8.36538 | 98.59444 | 15786 ft | 373 kts | 305° |
| 2026-05-06 11:05 | 8.37685 | 98.57043 | 15914 ft | 386 kts | 289° |
| 2026-05-06 11:05 | 8.38597 | 98.54432 | 16013 ft | 403 kts | 291° |
| 2026-05-06 11:06 | 8.39601 | 98.51769 | 16253 ft | 417 kts | 291° |
| 2026-05-06 11:06 | 8.40666 | 98.49009 | 16619 ft | 427 kts | 291° |
| 2026-05-06 11:06 | 8.41753 | 98.46191 | 17103 ft | 432 kts | 291° |
| 2026-05-06 11:06 | 8.42847 | 98.43343 | 17687 ft | 435 kts | 291° |
| 2026-05-06 11:07 | 8.43940 | 98.40486 | 18266 ft | 438 kts | 291° |
| 2026-05-06 11:07 | 8.45041 | 98.37604 | 18700 ft | 442 kts | 291° |
| 2026-05-06 11:07 | 8.46154 | 98.34692 | 19145 ft | 446 kts | 291° |
| 2026-05-06 11:07 | 8.47272 | 98.31764 | 19683 ft | 448 kts | 291° |
| 2026-05-06 11:08 | 8.48400 | 98.28808 | 20069 ft | 453 kts | 291° |
| 2026-05-06 11:08 | 8.49532 | 98.25845 | 20658 ft | 452 kts | 291° |
| 2026-05-06 11:08 | 8.50666 | 98.22873 | 21111 ft | 455 kts | 291° |
| 2026-05-06 11:08 | 8.51810 | 98.19875 | 21546 ft | 459 kts | 291° |
| 2026-05-06 11:09 | 8.52958 | 98.16866 | 22034 ft | 461 kts | 291° |
| 2026-05-06 11:09 | 8.54106 | 98.13857 | 22340 ft | 468 kts | 291° |
| 2026-05-06 11:09 | 8.55316 | 98.10803 | 22678 ft | 466 kts | 296° |
| 2026-05-06 11:09 | 8.57126 | 98.08093 | 22912 ft | 468 kts | 316° |
| 2026-05-06 11:10 | 8.59761 | 98.06186 | 23274 ft | 468 kts | 335° |
| 2026-05-06 11:10 | 8.62742 | 98.04889 | 23470 ft | 468 kts | 338° |
| 2026-05-06 11:10 | 8.65720 | 98.03496 | 23689 ft | 474 kts | 335° |
| 2026-05-06 11:10 | 8.68662 | 98.02001 | 24133 ft | 474 kts | 334° |
| 2026-05-06 11:11 | 8.71595 | 98.00478 | 24549 ft | 475 kts | 334° |
| 2026-05-06 11:11 | 8.74550 | 97.98951 | 24886 ft | 477 kts | 334° |
| 2026-05-06 11:11 | 8.77530 | 97.97428 | 25160 ft | 481 kts | 334° |
| 2026-05-06 11:11 | 8.80489 | 97.95930 | 25507 ft | 483 kts | 334° |
| 2026-05-06 11:12 | 8.83516 | 97.94406 | 25859 ft | 485 kts | 334° |
| 2026-05-06 11:12 | 8.86541 | 97.92885 | 26191 ft | 487 kts | 334° |
| 2026-05-06 11:12 | 8.89577 | 97.91358 | 26503 ft | 489 kts | 334° |
| 2026-05-06 11:12 | 8.92634 | 97.89820 | 26814 ft | 492 kts | 334° |
| 2026-05-06 11:13 | 8.95703 | 97.88273 | 27100 ft | 494 kts | 334° |
| 2026-05-06 11:13 | 8.98792 | 97.86717 | 27399 ft | 496 kts | 334° |
| 2026-05-06 11:13 | 9.01893 | 97.85153 | 27695 ft | 498 kts | 334° |
| 2026-05-06 11:13 | 9.04998 | 97.83588 | 28009 ft | 499 kts | 334° |
| 2026-05-06 11:14 | 9.08113 | 97.82017 | 28286 ft | 501 kts | 334° |
| 2026-05-06 11:14 | 9.11207 | 97.80456 | 28534 ft | 504 kts | 334° |
| 2026-05-06 11:14 | 9.14360 | 97.78865 | 28760 ft | 506 kts | 334° |
| 2026-05-06 11:14 | 9.17522 | 97.77269 | 29006 ft | 508 kts | 334° |
| 2026-05-06 11:15 | 9.20687 | 97.75670 | 29238 ft | 509 kts | 334° |
| 2026-05-06 11:15 | 9.23863 | 97.74066 | 29455 ft | 511 kts | 334° |
| 2026-05-06 11:15 | 9.27050 | 97.72456 | 29674 ft | 513 kts | 334° |
| 2026-05-06 11:15 | 9.30249 | 97.70839 | 29941 ft | 513 kts | 334° |
| 2026-05-06 11:16 | 9.33436 | 97.69228 | 30228 ft | 511 kts | 334° |
| 2026-05-06 11:16 | 9.36575 | 97.67640 | 30524 ft | 510 kts | 334° |
| 2026-05-06 11:16 | 9.39748 | 97.66036 | 30824 ft | 509 kts | 334° |
| 2026-05-06 11:16 | 9.42912 | 97.64436 | 31092 ft | 508 kts | 334° |
| 2026-05-06 11:17 | 9.46073 | 97.62837 | 31362 ft | 508 kts | 334° |
| 2026-05-06 11:17 | 9.49233 | 97.61238 | 31632 ft | 507 kts | 334° |
| 2026-05-06 11:17 | 9.52388 | 97.59641 | 31929 ft | 506 kts | 334° |
| 2026-05-06 11:17 | 9.55533 | 97.58049 | 32215 ft | 505 kts | 334° |
| 2026-05-06 11:18 | 9.58670 | 97.56461 | 32508 ft | 503 kts | 334° |
| 2026-05-06 11:18 | 9.61800 | 97.54876 | 32779 ft | 503 kts | 334° |
| 2026-05-06 11:18 | 9.64929 | 97.53291 | 33043 ft | 502 kts | 334° |
| 2026-05-06 11:18 | 9.68053 | 97.51708 | 33301 ft | 502 kts | 334° |
| 2026-05-06 11:19 | 9.71176 | 97.50126 | 33562 ft | 501 kts | 334° |
| 2026-05-06 11:19 | 9.74295 | 97.48545 | 33737 ft | 503 kts | 334° |
| 2026-05-06 11:19 | 9.77429 | 97.46957 | 33762 ft | 504 kts | 334° |
| 2026-05-06 11:20 | 9.83689 | 97.43782 | 33791 ft | 501 kts | 334° |
| 2026-05-06 11:20 | 9.88867 | 97.41155 | 33804 ft | 500 kts | 334° |
| 2026-05-06 11:21 | 9.95082 | 97.38000 | 33804 ft | 499 kts | 334° |
| 2026-05-06 11:21 | 10.01283 | 97.34852 | 33804 ft | 498 kts | 334° |
| 2026-05-06 11:22 | 10.07508 | 97.31718 | 33801 ft | 499 kts | 334° |
| 2026-05-06 11:22 | 10.13744 | 97.28588 | 33799 ft | 500 kts | 334° |
| 2026-05-06 11:23 | 10.19943 | 97.25472 | 33807 ft | 501 kts | 334° |
| 2026-05-06 11:23 | 10.26204 | 97.22320 | 33804 ft | 502 kts | 334° |
| 2026-05-06 11:24 | 10.32476 | 97.19159 | 33807 ft | 503 kts | 334° |
| 2026-05-06 11:24 | 10.38755 | 97.15994 | 33802 ft | 504 kts | 334° |
| 2026-05-06 11:25 | 10.45036 | 97.12827 | 33801 ft | 504 kts | 334° |
| 2026-05-06 11:25 | 10.51323 | 97.09655 | 33800 ft | 504 kts | 334° |
| 2026-05-06 11:26 | 10.57601 | 97.06486 | 33803 ft | 503 kts | 334° |
| 2026-05-06 11:26 | 10.63875 | 97.03318 | 33802 ft | 503 kts | 334° |
| 2026-05-06 11:27 | 10.70144 | 97.00151 | 33803 ft | 503 kts | 334° |
| 2026-05-06 11:27 | 10.76362 | 96.97008 | 33802 ft | 502 kts | 334° |
| 2026-05-06 11:28 | 10.82621 | 96.93844 | 33802 ft | 502 kts | 334° |
| 2026-05-06 11:28 | 10.88881 | 96.90677 | 33797 ft | 502 kts | 334° |
| 2026-05-06 11:29 | 10.95139 | 96.87509 | 33807 ft | 503 kts | 334° |
| 2026-05-06 11:29 | 11.01404 | 96.84336 | 33806 ft | 503 kts | 334° |
| 2026-05-06 11:30 | 11.07681 | 96.81156 | 33805 ft | 504 kts | 334° |
| 2026-05-06 11:30 | 11.13973 | 96.77967 | 33809 ft | 506 kts | 334° |
| 2026-05-06 11:31 | 11.20273 | 96.74772 | 33813 ft | 507 kts | 334° |
| 2026-05-06 11:31 | 11.26589 | 96.71568 | 33810 ft | 507 kts | 333° |
| 2026-05-06 11:32 | 11.32907 | 96.68361 | 33807 ft | 507 kts | 333° |
| 2026-05-06 11:32 | 11.39222 | 96.65153 | 33809 ft | 507 kts | 333° |
| 2026-05-06 11:33 | 11.45538 | 96.61944 | 33805 ft | 507 kts | 333° |
| 2026-05-06 11:33 | 11.51811 | 96.58755 | 33810 ft | 506 kts | 333° |
| 2026-05-06 11:34 | 11.58112 | 96.55550 | 33807 ft | 506 kts | 333° |
| 2026-05-06 11:34 | 11.64409 | 96.52345 | 33807 ft | 505 kts | 333° |
| 2026-05-06 11:35 | 11.70707 | 96.49138 | 33811 ft | 505 kts | 333° |
| 2026-05-06 11:35 | 11.77000 | 96.45932 | 33812 ft | 505 kts | 334° |
| 2026-05-06 11:36 | 11.83293 | 96.42724 | 33810 ft | 505 kts | 334° |
| 2026-05-06 11:36 | 11.89391 | 96.39263 | 33800 ft | 506 kts | 325° |
| 2026-05-06 11:37 | 11.94791 | 96.34662 | 33810 ft | 506 kts | 314° |
| 2026-05-06 11:37 | 11.99694 | 96.29500 | 33823 ft | 505 kts | 315° |
| 2026-05-06 11:38 | 12.04638 | 96.24396 | 33810 ft | 504 kts | 316° |
| 2026-05-06 11:38 | 12.09586 | 96.19324 | 33810 ft | 503 kts | 316° |
| 2026-05-06 11:39 | 12.14520 | 96.14265 | 33811 ft | 502 kts | 316° |
| 2026-05-06 11:39 | 12.19450 | 96.09203 | 33810 ft | 501 kts | 316° |
| 2026-05-06 11:40 | 12.24333 | 96.04184 | 33816 ft | 501 kts | 316° |
| 2026-05-06 11:40 | 12.29246 | 95.99132 | 33815 ft | 501 kts | 316° |
| 2026-05-06 11:41 | 12.34156 | 95.94079 | 33816 ft | 501 kts | 316° |
| 2026-05-06 11:41 | 12.39069 | 95.89021 | 33816 ft | 501 kts | 316° |
| 2026-05-06 11:42 | 12.43989 | 95.83954 | 33817 ft | 502 kts | 316° |
| 2026-05-06 11:42 | 12.48911 | 95.78881 | 33817 ft | 502 kts | 316° |
| 2026-05-06 11:43 | 12.53835 | 95.73803 | 33813 ft | 503 kts | 316° |
| 2026-05-06 11:43 | 12.58765 | 95.68716 | 33812 ft | 503 kts | 316° |
| 2026-05-06 11:44 | 12.66158 | 95.61082 | 33815 ft | 503 kts | 316° |
| 2026-05-06 11:44 | 12.71062 | 95.56013 | 33814 ft | 504 kts | 316° |
| 2026-05-06 11:45 | 12.75992 | 95.50915 | 33818 ft | 503 kts | 316° |
| 2026-05-06 11:45 | 12.80915 | 95.45820 | 33815 ft | 502 kts | 316° |
| 2026-05-06 11:46 | 12.85827 | 95.40730 | 33815 ft | 501 kts | 315° |
| 2026-05-06 11:46 | 12.90678 | 95.35597 | 33816 ft | 501 kts | 315° |
| 2026-05-06 11:47 | 12.95474 | 95.30476 | 33814 ft | 501 kts | 315° |
| 2026-05-06 11:47 | 13.00297 | 95.25331 | 33817 ft | 501 kts | 315° |
| 2026-05-06 11:48 | 13.05132 | 95.20181 | 33813 ft | 501 kts | 315° |
| 2026-05-06 11:48 | 13.09974 | 95.15025 | 33819 ft | 501 kts | 314° |
| 2026-05-06 11:49 | 13.14809 | 95.09875 | 33817 ft | 500 kts | 314° |
| 2026-05-06 11:49 | 13.19635 | 95.04728 | 33814 ft | 499 kts | 314° |
| 2026-05-06 11:50 | 13.24448 | 94.99593 | 33814 ft | 498 kts | 314° |
| 2026-05-06 11:50 | 13.29220 | 94.94499 | 33820 ft | 498 kts | 314° |
| 2026-05-06 11:51 | 13.34016 | 94.89376 | 33815 ft | 498 kts | 314° |
| 2026-05-06 11:51 | 13.38816 | 94.84245 | 33817 ft | 498 kts | 314° |
| 2026-05-06 11:52 | 13.43619 | 94.79109 | 33814 ft | 498 kts | 314° |
| 2026-05-06 11:52 | 13.48420 | 94.73972 | 33821 ft | 497 kts | 313° |
| 2026-05-06 11:53 | 13.53173 | 94.68882 | 33815 ft | 496 kts | 313° |
| 2026-05-06 11:53 | 13.57942 | 94.63771 | 33814 ft | 494 kts | 313° |
| 2026-05-06 11:54 | 13.62700 | 94.58669 | 33811 ft | 493 kts | 313° |
| 2026-05-06 11:54 | 13.67447 | 94.53577 | 33815 ft | 493 kts | 313° |
| 2026-05-06 11:55 | 13.72198 | 94.48477 | 33818 ft | 493 kts | 313° |
| 2026-05-06 11:55 | 13.76916 | 94.43410 | 33819 ft | 493 kts | 313° |
| 2026-05-06 11:56 | 13.81671 | 94.38298 | 33815 ft | 494 kts | 313° |
| 2026-05-06 11:56 | 13.86423 | 94.33187 | 33813 ft | 494 kts | 313° |
| 2026-05-06 11:57 | 13.91178 | 94.28070 | 33816 ft | 495 kts | 313° |
| 2026-05-06 11:57 | 13.95931 | 94.22951 | 33816 ft | 495 kts | 313° |
| 2026-05-06 11:58 | 14.00688 | 94.17825 | 33815 ft | 495 kts | 313° |
| 2026-05-06 11:58 | 14.05444 | 94.12698 | 33816 ft | 495 kts | 313° |
| 2026-05-06 11:59 | 14.10199 | 94.07567 | 33817 ft | 495 kts | 313° |
| 2026-05-06 11:59 | 14.14920 | 94.02470 | 33816 ft | 495 kts | 313° |
| 2026-05-06 12:00 | 14.19680 | 93.97329 | 33823 ft | 494 kts | 312° |
| 2026-05-06 12:00 | 14.24421 | 93.92204 | 33817 ft | 494 kts | 312° |
| 2026-05-06 12:01 | 14.29157 | 93.87079 | 33815 ft | 493 kts | 312° |
| 2026-05-06 12:01 | 14.33895 | 93.81950 | 33816 ft | 493 kts | 312° |
| 2026-05-06 12:02 | 14.38625 | 93.76827 | 33813 ft | 493 kts | 312° |
| 2026-05-06 12:02 | 14.43357 | 93.71698 | 33818 ft | 493 kts | 312° |
| 2026-05-06 12:03 | 14.48058 | 93.66600 | 33821 ft | 494 kts | 312° |
| 2026-05-06 12:03 | 14.52798 | 93.61455 | 33820 ft | 495 kts | 312° |
| 2026-05-06 12:04 | 14.57543 | 93.56302 | 33822 ft | 495 kts | 312° |
| 2026-05-06 12:04 | 14.62290 | 93.51143 | 33820 ft | 495 kts | 311° |
| 2026-05-06 12:05 | 14.67033 | 93.45985 | 33823 ft | 495 kts | 311° |
| 2026-05-06 12:05 | 14.71775 | 93.40825 | 33824 ft | 495 kts | 311° |
| 2026-05-06 12:06 | 14.76518 | 93.35660 | 33824 ft | 495 kts | 311° |
| 2026-05-06 12:06 | 14.81250 | 93.30504 | 33825 ft | 494 kts | 311° |
| 2026-05-06 12:07 | 14.85981 | 93.25344 | 33824 ft | 494 kts | 311° |
| 2026-05-06 12:07 | 14.90711 | 93.20183 | 33825 ft | 494 kts | 311° |
| 2026-05-06 12:08 | 14.95403 | 93.15059 | 33829 ft | 493 kts | 311° |
| 2026-05-06 12:08 | 15.00117 | 93.09909 | 33822 ft | 492 kts | 311° |
| 2026-05-06 12:09 | 15.04823 | 93.04764 | 33826 ft | 491 kts | 311° |
| 2026-05-06 12:09 | 15.08732 | 93.00486 | 33822 ft | 491 kts | 311° |
| 2026-05-06 12:10 | 15.14182 | 92.94518 | 33825 ft | 490 kts | 311° |
| 2026-05-06 12:10 | 15.18105 | 92.90220 | 33825 ft | 490 kts | 311° |
| 2026-05-06 12:11 | 15.22782 | 92.85093 | 33827 ft | 490 kts | 311° |
| 2026-05-06 12:11 | 15.27435 | 92.79988 | 33828 ft | 490 kts | 311° |
| 2026-05-06 12:12 | 15.32119 | 92.74844 | 33828 ft | 490 kts | 311° |
| 2026-05-06 12:12 | 15.36810 | 92.69690 | 33829 ft | 491 kts | 311° |
| 2026-05-06 12:13 | 15.41495 | 92.64538 | 33832 ft | 491 kts | 311° |
| 2026-05-06 12:13 | 15.46214 | 92.59464 | 33826 ft | 492 kts | 313° |
| 2026-05-06 12:14 | 15.51072 | 92.54458 | 33828 ft | 492 kts | 313° |
| 2026-05-06 12:14 | 15.55933 | 92.49449 | 33827 ft | 492 kts | 313° |
| 2026-05-06 12:15 | 15.60776 | 92.44423 | 33828 ft | 492 kts | 313° |
| 2026-05-06 12:15 | 15.65607 | 92.39391 | 33836 ft | 491 kts | 312° |
| 2026-05-06 12:16 | 15.70394 | 92.34399 | 33825 ft | 490 kts | 312° |
| 2026-05-06 12:16 | 15.75199 | 92.29386 | 33829 ft | 489 kts | 312° |
| 2026-05-06 12:17 | 15.80030 | 92.24344 | 33828 ft | 489 kts | 312° |
| 2026-05-06 12:17 | 15.84788 | 92.19374 | 33831 ft | 488 kts | 312° |
| 2026-05-06 12:18 | 15.89583 | 92.14362 | 33833 ft | 488 kts | 312° |
| 2026-05-06 12:18 | 15.94381 | 92.09343 | 33833 ft | 489 kts | 312° |
| 2026-05-06 12:19 | 15.99172 | 92.04327 | 33837 ft | 489 kts | 312° |
| 2026-05-06 12:19 | 16.03961 | 91.99310 | 33834 ft | 489 kts | 312° |
| 2026-05-06 12:20 | 16.08725 | 91.94323 | 33833 ft | 489 kts | 312° |
| 2026-05-06 12:20 | 16.13516 | 91.89304 | 33830 ft | 489 kts | 312° |
| 2026-05-06 12:21 | 16.18301 | 91.84286 | 33831 ft | 489 kts | 312° |
| 2026-05-06 12:21 | 16.23088 | 91.79261 | 33830 ft | 489 kts | 312° |
| 2026-05-06 12:22 | 16.27881 | 91.74226 | 33830 ft | 489 kts | 312° |
| 2026-05-06 12:22 | 16.32669 | 91.69192 | 33830 ft | 489 kts | 312° |
| 2026-05-06 12:23 | 16.37456 | 91.64157 | 33839 ft | 489 kts | 312° |
| 2026-05-06 12:23 | 16.42238 | 91.59123 | 33830 ft | 488 kts | 312° |
| 2026-05-06 12:24 | 16.47007 | 91.54098 | 33832 ft | 487 kts | 312° |
| 2026-05-06 12:24 | 16.51739 | 91.49109 | 33833 ft | 487 kts | 312° |
| 2026-05-06 12:25 | 16.56497 | 91.44088 | 33833 ft | 487 kts | 312° |
| 2026-05-06 12:25 | 16.61251 | 91.39068 | 33834 ft | 487 kts | 312° |
| 2026-05-06 12:26 | 16.66008 | 91.34042 | 33833 ft | 487 kts | 312° |
| 2026-05-06 12:26 | 16.70766 | 91.29009 | 33837 ft | 487 kts | 311° |
| 2026-05-06 12:27 | 16.75521 | 91.23978 | 33835 ft | 486 kts | 311° |
| 2026-05-06 12:27 | 16.80266 | 91.18952 | 33835 ft | 486 kts | 311° |
| 2026-05-06 12:28 | 16.85006 | 91.13928 | 33840 ft | 486 kts | 311° |
| 2026-05-06 12:28 | 16.89748 | 91.08898 | 33835 ft | 486 kts | 311° |
| 2026-05-06 12:29 | 16.94491 | 91.03863 | 33837 ft | 486 kts | 311° |
| 2026-05-06 12:29 | 16.99234 | 90.98824 | 33836 ft | 487 kts | 311° |
| 2026-05-06 12:30 | 17.03953 | 90.93807 | 33835 ft | 487 kts | 311° |
| 2026-05-06 12:30 | 17.08704 | 90.88753 | 33838 ft | 487 kts | 311° |
| 2026-05-06 12:31 | 17.13455 | 90.83693 | 33833 ft | 487 kts | 311° |
| 2026-05-06 12:31 | 17.18208 | 90.78628 | 33833 ft | 487 kts | 311° |
| 2026-05-06 12:32 | 17.22957 | 90.73562 | 33831 ft | 488 kts | 311° |
| 2026-05-06 12:32 | 17.27707 | 90.68493 | 33835 ft | 488 kts | 311° |
| 2026-05-06 12:33 | 17.32458 | 90.63418 | 33830 ft | 488 kts | 311° |
| 2026-05-06 12:33 | 17.37184 | 90.58364 | 33833 ft | 489 kts | 311° |
| 2026-05-06 12:34 | 17.41946 | 90.53279 | 33843 ft | 489 kts | 311° |
| 2026-05-06 12:34 | 17.46761 | 90.48242 | 33831 ft | 489 kts | 311° |
| 2026-05-06 12:35 | 17.51596 | 90.43218 | 33829 ft | 489 kts | 311° |
| 2026-05-06 12:35 | 17.56413 | 90.38197 | 33833 ft | 488 kts | 311° |
| 2026-05-06 12:36 | 17.61224 | 90.33166 | 33826 ft | 488 kts | 311° |
| 2026-05-06 12:36 | 17.66034 | 90.28127 | 33830 ft | 488 kts | 311° |
| 2026-05-06 12:37 | 17.70843 | 90.23087 | 33833 ft | 489 kts | 311° |
| 2026-05-06 12:37 | 17.75624 | 90.18073 | 33840 ft | 489 kts | 311° |
| 2026-05-06 12:38 | 17.80432 | 90.13027 | 33832 ft | 489 kts | 311° |
| 2026-05-06 12:38 | 17.85240 | 90.07976 | 33830 ft | 488 kts | 311° |
| 2026-05-06 12:39 | 17.90040 | 90.02930 | 33826 ft | 488 kts | 310° |
| 2026-05-06 12:39 | 17.94837 | 89.97882 | 33828 ft | 488 kts | 310° |
| 2026-05-06 12:40 | 17.99637 | 89.92828 | 33828 ft | 488 kts | 310° |
| 2026-05-06 12:40 | 18.04432 | 89.87774 | 33828 ft | 488 kts | 310° |
| 2026-05-06 12:41 | 18.09228 | 89.82715 | 33835 ft | 488 kts | 310° |
| 2026-05-06 12:41 | 18.14027 | 89.77650 | 33831 ft | 488 kts | 310° |
| 2026-05-06 12:42 | 18.18819 | 89.72587 | 33826 ft | 488 kts | 310° |
| 2026-05-06 12:42 | 18.23577 | 89.67557 | 33824 ft | 488 kts | 310° |
| 2026-05-06 12:43 | 18.28360 | 89.62495 | 33826 ft | 487 kts | 310° |
| 2026-05-06 12:43 | 18.33143 | 89.57429 | 33828 ft | 487 kts | 310° |
| 2026-05-06 12:44 | 18.37920 | 89.52366 | 33828 ft | 487 kts | 310° |
| 2026-05-06 12:44 | 18.42695 | 89.47299 | 33827 ft | 487 kts | 310° |
| 2026-05-06 12:45 | 18.47474 | 89.42226 | 33829 ft | 487 kts | 310° |
| 2026-05-06 12:46 | 18.54601 | 89.34650 | 33825 ft | 486 kts | 310° |
| 2026-05-06 12:46 | 18.59364 | 89.29582 | 33827 ft | 486 kts | 310° |
| 2026-05-06 12:47 | 18.64126 | 89.24511 | 33824 ft | 486 kts | 310° |
| 2026-05-06 12:47 | 18.68882 | 89.19442 | 33826 ft | 486 kts | 310° |
| 2026-05-06 12:48 | 18.73636 | 89.14371 | 33827 ft | 486 kts | 310° |
| 2026-05-06 12:48 | 18.78360 | 89.09327 | 33826 ft | 486 kts | 310° |
| 2026-05-06 12:49 | 18.83115 | 89.04246 | 33824 ft | 486 kts | 310° |
| 2026-05-06 12:49 | 18.87868 | 88.99163 | 33824 ft | 487 kts | 310° |
| 2026-05-06 12:50 | 18.92621 | 88.94075 | 33825 ft | 487 kts | 310° |
| 2026-05-06 12:50 | 18.97380 | 88.88977 | 33824 ft | 487 kts | 310° |
| 2026-05-06 12:51 | 19.02136 | 88.83878 | 33828 ft | 487 kts | 310° |
| 2026-05-06 12:51 | 19.06888 | 88.78777 | 33824 ft | 487 kts | 310° |
| 2026-05-06 12:52 | 19.11642 | 88.73670 | 33832 ft | 487 kts | 310° |
| 2026-05-06 12:52 | 19.16391 | 88.68564 | 33824 ft | 487 kts | 310° |
| 2026-05-06 12:53 | 19.21110 | 88.63432 | 33825 ft | 486 kts | 309° |
| 2026-05-06 12:53 | 19.25702 | 88.58254 | 33824 ft | 485 kts | 308° |
| 2026-05-06 12:54 | 19.30307 | 88.53034 | 33819 ft | 485 kts | 308° |
| 2026-05-06 12:54 | 19.34919 | 88.47822 | 33822 ft | 484 kts | 308° |
| 2026-05-06 12:55 | 19.39535 | 88.42616 | 33826 ft | 485 kts | 308° |
| 2026-05-06 12:55 | 19.44152 | 88.37409 | 33820 ft | 485 kts | 308° |
| 2026-05-06 12:56 | 19.48772 | 88.32192 | 33814 ft | 485 kts | 308° |
| 2026-05-06 12:56 | 19.52609 | 88.27855 | 33829 ft | 485 kts | 308° |
| 2026-05-06 12:57 | 19.57227 | 88.22631 | 33812 ft | 485 kts | 308° |
| 2026-05-06 12:57 | 19.62595 | 88.16554 | 33813 ft | 485 kts | 308° |
| 2026-05-06 12:58 | 19.66458 | 88.12175 | 33830 ft | 485 kts | 308° |
| 2026-05-06 12:58 | 19.71042 | 88.06976 | 33833 ft | 485 kts | 308° |
| 2026-05-06 12:59 | 19.75648 | 88.01747 | 33806 ft | 484 kts | 308° |
| 2026-05-06 12:59 | 19.80244 | 87.96525 | 33842 ft | 483 kts | 308° |
| 2026-05-06 13:00 | 19.84829 | 87.91311 | 33814 ft | 482 kts | 308° |
| 2026-05-06 13:00 | 19.89401 | 87.86105 | 33818 ft | 481 kts | 308° |
| 2026-05-06 13:01 | 19.93966 | 87.80904 | 33820 ft | 480 kts | 308° |
| 2026-05-06 13:01 | 19.98491 | 87.75743 | 33815 ft | 480 kts | 308° |
| 2026-05-06 13:02 | 20.03047 | 87.70542 | 33812 ft | 480 kts | 308° |
| 2026-05-06 13:02 | 20.07593 | 87.65347 | 33811 ft | 480 kts | 308° |
| 2026-05-06 13:03 | 20.12151 | 87.60135 | 33826 ft | 480 kts | 308° |
| 2026-05-06 13:03 | 20.16705 | 87.54921 | 33816 ft | 481 kts | 308° |
| 2026-05-06 13:04 | 20.21232 | 87.49735 | 33809 ft | 481 kts | 308° |
| 2026-05-06 13:04 | 20.25790 | 87.44508 | 33809 ft | 481 kts | 308° |
| 2026-05-06 13:05 | 20.30346 | 87.39278 | 33802 ft | 481 kts | 308° |
| 2026-05-06 13:05 | 20.34899 | 87.34047 | 33803 ft | 481 kts | 308° |
| 2026-05-06 13:06 | 20.39445 | 87.28819 | 33806 ft | 481 kts | 308° |
| 2026-05-06 13:06 | 20.43991 | 87.23585 | 33803 ft | 481 kts | 308° |
| 2026-05-06 13:07 | 20.48527 | 87.18351 | 33808 ft | 480 kts | 308° |
| 2026-05-06 13:07 | 20.53015 | 87.13083 | 33797 ft | 479 kts | 308° |
| 2026-05-06 13:08 | 20.57461 | 87.07846 | 33793 ft | 478 kts | 308° |
| 2026-05-06 13:08 | 20.61925 | 87.02596 | 33794 ft | 477 kts | 308° |
| 2026-05-06 13:09 | 20.66394 | 86.97359 | 33794 ft | 477 kts | 308° |
| 2026-05-06 13:09 | 20.70902 | 86.92161 | 33801 ft | 477 kts | 308° |
| 2026-05-06 13:10 | 20.75413 | 86.86952 | 33785 ft | 476 kts | 308° |
| 2026-05-06 13:10 | 20.79879 | 86.81779 | 33804 ft | 476 kts | 308° |
| 2026-05-06 13:11 | 20.84378 | 86.76593 | 33784 ft | 475 kts | 309° |
| 2026-05-06 13:11 | 20.88933 | 86.71469 | 33786 ft | 474 kts | 309° |
| 2026-05-06 13:12 | 20.93485 | 86.66361 | 33792 ft | 474 kts | 309° |
| 2026-05-06 13:12 | 20.97994 | 86.61282 | 33796 ft | 474 kts | 309° |
| 2026-05-06 13:13 | 21.02526 | 86.56160 | 33798 ft | 474 kts | 309° |
| 2026-05-06 13:13 | 21.07063 | 86.51025 | 33787 ft | 474 kts | 309° |
| 2026-05-06 13:14 | 21.11593 | 86.45893 | 33825 ft | 474 kts | 309° |
| 2026-05-06 13:14 | 21.16121 | 86.40760 | 33805 ft | 474 kts | 309° |
| 2026-05-06 13:15 | 21.20651 | 86.35620 | 33805 ft | 474 kts | 309° |
| 2026-05-06 13:15 | 21.25178 | 86.30479 | 33817 ft | 474 kts | 309° |
| 2026-05-06 13:16 | 21.29669 | 86.25373 | 33840 ft | 474 kts | 309° |
| 2026-05-06 13:16 | 21.34197 | 86.20221 | 33814 ft | 474 kts | 309° |
| 2026-05-06 13:17 | 21.38716 | 86.15072 | 33840 ft | 473 kts | 309° |
| 2026-05-06 13:17 | 21.43235 | 86.09921 | 33861 ft | 473 kts | 308° |
| 2026-05-06 13:18 | 21.47743 | 86.04777 | 33835 ft | 472 kts | 308° |
| 2026-05-06 13:18 | 21.52241 | 85.99638 | 33840 ft | 471 kts | 308° |
| 2026-05-06 13:19 | 21.56723 | 85.94512 | 33841 ft | 470 kts | 308° |
| 2026-05-06 13:19 | 21.61169 | 85.89423 | 33845 ft | 469 kts | 308° |
| 2026-05-06 13:20 | 21.65634 | 85.84308 | 33846 ft | 469 kts | 308° |
| 2026-05-06 13:20 | 21.70101 | 85.79185 | 33847 ft | 469 kts | 308° |
| 2026-05-06 13:21 | 21.74571 | 85.74053 | 33851 ft | 470 kts | 308° |
| 2026-05-06 13:21 | 21.79043 | 85.68914 | 33854 ft | 470 kts | 308° |
| 2026-05-06 13:22 | 21.83519 | 85.63767 | 33855 ft | 471 kts | 308° |
| 2026-05-06 13:22 | 21.87962 | 85.58652 | 33851 ft | 471 kts | 308° |
| 2026-05-06 13:23 | 21.92429 | 85.53504 | 33855 ft | 470 kts | 308° |
| 2026-05-06 13:23 | 21.96900 | 85.48346 | 33852 ft | 470 kts | 308° |
| 2026-05-06 13:24 | 22.01360 | 85.43197 | 33855 ft | 470 kts | 308° |
| 2026-05-06 13:24 | 22.05818 | 85.38043 | 33855 ft | 469 kts | 308° |
| 2026-05-06 13:25 | 22.10269 | 85.32894 | 33851 ft | 469 kts | 308° |
| 2026-05-06 13:25 | 22.14723 | 85.27736 | 33859 ft | 469 kts | 308° |
| 2026-05-06 13:26 | 22.19163 | 85.22589 | 33846 ft | 469 kts | 308° |
| 2026-05-06 13:26 | 22.23570 | 85.17474 | 33852 ft | 469 kts | 308° |
| 2026-05-06 13:27 | 22.28010 | 85.12316 | 33839 ft | 469 kts | 308° |
| 2026-05-06 13:27 | 22.32459 | 85.07141 | 33815 ft | 469 kts | 308° |
| 2026-05-06 13:28 | 22.36903 | 85.01968 | 33814 ft | 470 kts | 308° |
| 2026-05-06 13:28 | 22.41350 | 84.96788 | 33818 ft | 469 kts | 308° |
| 2026-05-06 13:29 | 22.45759 | 84.91645 | 33812 ft | 469 kts | 308° |
| 2026-05-06 13:29 | 22.50186 | 84.86474 | 33850 ft | 467 kts | 308° |
| 2026-05-06 13:30 | 22.54609 | 84.81322 | 33858 ft | 467 kts | 308° |
| 2026-05-06 13:30 | 22.59070 | 84.76220 | 33861 ft | 466 kts | 308° |
| 2026-05-06 13:31 | 22.63532 | 84.71122 | 33871 ft | 466 kts | 308° |
| 2026-05-06 13:31 | 22.67955 | 84.66047 | 33867 ft | 466 kts | 308° |
| 2026-05-06 13:32 | 22.72405 | 84.60933 | 33866 ft | 466 kts | 308° |
| 2026-05-06 13:32 | 22.76855 | 84.55815 | 33879 ft | 466 kts | 308° |
| 2026-05-06 13:33 | 22.81297 | 84.50699 | 33870 ft | 466 kts | 308° |
| 2026-05-06 13:33 | 22.85731 | 84.45586 | 33878 ft | 465 kts | 308° |
| 2026-05-06 13:34 | 22.90165 | 84.40467 | 33883 ft | 465 kts | 308° |
| 2026-05-06 13:34 | 22.94588 | 84.35355 | 33882 ft | 465 kts | 308° |
| 2026-05-06 13:35 | 22.98987 | 84.30266 | 33874 ft | 464 kts | 308° |
| 2026-05-06 13:35 | 23.03405 | 84.25150 | 33890 ft | 464 kts | 308° |
| 2026-05-06 13:36 | 23.07825 | 84.20025 | 33881 ft | 464 kts | 308° |
| 2026-05-06 13:36 | 23.12240 | 84.14902 | 33872 ft | 464 kts | 307° |
| 2026-05-06 13:37 | 23.16650 | 84.09778 | 33874 ft | 464 kts | 308° |
| 2026-05-06 13:37 | 23.21034 | 84.04680 | 33871 ft | 465 kts | 308° |
| 2026-05-06 13:38 | 23.25475 | 83.99509 | 33864 ft | 465 kts | 308° |
| 2026-05-06 13:38 | 23.29859 | 83.94400 | 33860 ft | 465 kts | 308° |
| 2026-05-06 13:39 | 23.34275 | 83.89253 | 33860 ft | 465 kts | 307° |
| 2026-05-06 13:39 | 23.38687 | 83.84099 | 33850 ft | 464 kts | 307° |
| 2026-05-06 13:40 | 23.43067 | 83.78978 | 33836 ft | 464 kts | 307° |
| 2026-05-06 13:40 | 23.47471 | 83.73823 | 33833 ft | 465 kts | 307° |
| 2026-05-06 13:41 | 23.51880 | 83.68657 | 33819 ft | 465 kts | 307° |
| 2026-05-06 13:41 | 23.56285 | 83.63492 | 33819 ft | 465 kts | 307° |
| 2026-05-06 13:42 | 23.60688 | 83.58324 | 33815 ft | 465 kts | 307° |
| 2026-05-06 13:42 | 23.65092 | 83.53147 | 33828 ft | 466 kts | 307° |
| 2026-05-06 13:43 | 23.69493 | 83.47968 | 33817 ft | 465 kts | 307° |
| 2026-05-06 13:43 | 23.73847 | 83.42762 | 33793 ft | 462 kts | 303° |
| 2026-05-06 13:44 | 23.77783 | 83.37255 | 33791 ft | 459 kts | 302° |
| 2026-05-06 13:44 | 23.81726 | 83.31768 | 33799 ft | 459 kts | 302° |
| 2026-05-06 13:45 | 23.85012 | 83.27205 | 33790 ft | 459 kts | 302° |
| 2026-05-06 13:45 | 23.90936 | 83.18968 | 33785 ft | 459 kts | 302° |
| 2026-05-06 13:46 | 23.94865 | 83.13493 | 33788 ft | 461 kts | 302° |
| 2026-05-06 13:46 | 23.98827 | 83.07963 | 33777 ft | 462 kts | 302° |
| 2026-05-06 13:47 | 24.02794 | 83.02423 | 33781 ft | 462 kts | 302° |
| 2026-05-06 13:47 | 24.06762 | 82.96876 | 33786 ft | 463 kts | 302° |
| 2026-05-06 13:48 | 24.10732 | 82.91320 | 33772 ft | 463 kts | 302° |
| 2026-05-06 13:48 | 24.14676 | 82.85793 | 33764 ft | 463 kts | 302° |
| 2026-05-06 13:49 | 24.18637 | 82.80236 | 33773 ft | 463 kts | 302° |
| 2026-05-06 13:49 | 24.22597 | 82.74674 | 33791 ft | 463 kts | 302° |
| 2026-05-06 13:50 | 24.26552 | 82.69113 | 33777 ft | 463 kts | 302° |
| 2026-05-06 13:50 | 24.30504 | 82.63552 | 33774 ft | 462 kts | 302° |
| 2026-05-06 13:51 | 24.34451 | 82.57989 | 33766 ft | 462 kts | 302° |
| 2026-05-06 13:51 | 24.38396 | 82.52421 | 33771 ft | 462 kts | 302° |
| 2026-05-06 13:52 | 24.42345 | 82.46844 | 33768 ft | 461 kts | 302° |
| 2026-05-06 13:52 | 24.46281 | 82.41278 | 33766 ft | 461 kts | 302° |
| 2026-05-06 13:53 | 24.50191 | 82.35742 | 33775 ft | 461 kts | 302° |
| 2026-05-06 13:53 | 24.54124 | 82.30167 | 33775 ft | 462 kts | 302° |
| 2026-05-06 13:54 | 24.58060 | 82.24582 | 33759 ft | 462 kts | 302° |
| 2026-05-06 13:54 | 24.61997 | 82.18989 | 33764 ft | 462 kts | 302° |
| 2026-05-06 13:55 | 24.65928 | 82.13397 | 33762 ft | 462 kts | 302° |
| 2026-05-06 13:55 | 24.69861 | 82.07797 | 33761 ft | 462 kts | 302° |
| 2026-05-06 13:56 | 24.73766 | 82.02230 | 33764 ft | 462 kts | 302° |
| 2026-05-06 13:56 | 24.77690 | 81.96630 | 33763 ft | 462 kts | 302° |
| 2026-05-06 13:57 | 24.81611 | 81.91027 | 33786 ft | 462 kts | 302° |
| 2026-05-06 13:57 | 24.85539 | 81.85409 | 33759 ft | 463 kts | 302° |
| 2026-05-06 13:58 | 24.89461 | 81.79791 | 33773 ft | 462 kts | 302° |
| 2026-05-06 13:58 | 24.93379 | 81.74176 | 33772 ft | 461 kts | 302° |
| 2026-05-06 13:59 | 24.97283 | 81.68568 | 33755 ft | 461 kts | 302° |
| 2026-05-06 13:59 | 25.01196 | 81.62942 | 33766 ft | 462 kts | 302° |
| 2026-05-06 14:00 | 25.05079 | 81.57355 | 33769 ft | 462 kts | 302° |
| 2026-05-06 14:00 | 25.08997 | 81.51710 | 33770 ft | 462 kts | 302° |
| 2026-05-06 14:01 | 25.12898 | 81.46083 | 33769 ft | 462 kts | 302° |
| 2026-05-06 14:01 | 25.16794 | 81.40494 | 33763 ft | 462 kts | 302° |
| 2026-05-06 14:02 | 25.20750 | 81.34894 | 33775 ft | 462 kts | 302° |
| 2026-05-06 14:02 | 25.24703 | 81.29295 | 33772 ft | 462 kts | 302° |
| 2026-05-06 14:03 | 25.28649 | 81.23687 | 33765 ft | 462 kts | 303° |
| 2026-05-06 14:03 | 25.32589 | 81.18076 | 33769 ft | 461 kts | 302° |
| 2026-05-06 14:04 | 25.36500 | 81.12499 | 33770 ft | 461 kts | 302° |
| 2026-05-06 14:04 | 25.40430 | 81.06888 | 33771 ft | 461 kts | 303° |
| 2026-05-06 14:05 | 25.44358 | 81.01273 | 33769 ft | 462 kts | 303° |
| 2026-05-06 14:05 | 25.48297 | 80.95636 | 33771 ft | 462 kts | 302° |
| 2026-05-06 14:06 | 25.52222 | 80.90013 | 33761 ft | 462 kts | 303° |
| 2026-05-06 14:06 | 25.56124 | 80.84414 | 33774 ft | 461 kts | 303° |
| 2026-05-06 14:07 | 25.60045 | 80.78784 | 33772 ft | 462 kts | 303° |
| 2026-05-06 14:07 | 25.63966 | 80.73145 | 33773 ft | 462 kts | 303° |
| 2026-05-06 14:08 | 25.67894 | 80.67490 | 33772 ft | 463 kts | 303° |
| 2026-05-06 14:08 | 25.71821 | 80.61829 | 33785 ft | 463 kts | 303° |
| 2026-05-06 14:09 | 25.75717 | 80.56207 | 33785 ft | 463 kts | 303° |
| 2026-05-06 14:09 | 25.79637 | 80.50542 | 33796 ft | 462 kts | 303° |
| 2026-05-06 14:10 | 25.83551 | 80.44880 | 33780 ft | 461 kts | 303° |
| 2026-05-06 14:10 | 25.87453 | 80.39227 | 33780 ft | 460 kts | 303° |
| 2026-05-06 14:11 | 25.91346 | 80.33579 | 33782 ft | 460 kts | 303° |
| 2026-05-06 14:11 | 25.95233 | 80.27935 | 33804 ft | 460 kts | 303° |
| 2026-05-06 14:12 | 25.99138 | 80.22362 | 33797 ft | 460 kts | 304° |
| 2026-05-06 14:12 | 26.03185 | 80.16845 | 33789 ft | 460 kts | 305° |
| 2026-05-06 14:13 | 26.07236 | 80.11341 | 33795 ft | 459 kts | 305° |
| 2026-05-06 14:13 | 26.11269 | 80.05825 | 33792 ft | 459 kts | 305° |
| 2026-05-06 14:14 | 26.15287 | 80.00303 | 33793 ft | 459 kts | 305° |
| 2026-05-06 14:14 | 26.19304 | 79.94770 | 33796 ft | 459 kts | 305° |
| 2026-05-06 14:15 | 26.23290 | 79.89269 | 33810 ft | 459 kts | 305° |
| 2026-05-06 14:15 | 26.27304 | 79.83730 | 33799 ft | 459 kts | 305° |
| 2026-05-06 14:16 | 26.31303 | 79.78204 | 33792 ft | 457 kts | 305° |
| 2026-05-06 14:16 | 26.35292 | 79.72684 | 33797 ft | 456 kts | 305° |
| 2026-05-06 14:17 | 26.39270 | 79.67172 | 33795 ft | 456 kts | 305° |
| 2026-05-06 14:17 | 26.43245 | 79.61658 | 33799 ft | 455 kts | 305° |
| 2026-05-06 14:18 | 26.47216 | 79.56142 | 33801 ft | 456 kts | 305° |
| 2026-05-06 14:18 | 26.51185 | 79.50621 | 33793 ft | 456 kts | 306° |
| 2026-05-06 14:19 | 26.55151 | 79.45099 | 33798 ft | 455 kts | 306° |
| 2026-05-06 14:19 | 26.59106 | 79.39586 | 33789 ft | 454 kts | 306° |
| 2026-05-06 14:20 | 26.63046 | 79.34089 | 33783 ft | 453 kts | 306° |
| 2026-05-06 14:20 | 26.66953 | 79.28629 | 33788 ft | 452 kts | 306° |
| 2026-05-06 14:21 | 26.70881 | 79.23134 | 33782 ft | 452 kts | 306° |
| 2026-05-06 14:21 | 26.74808 | 79.17631 | 33780 ft | 452 kts | 306° |
| 2026-05-06 14:22 | 26.78733 | 79.12124 | 33789 ft | 452 kts | 306° |
| 2026-05-06 14:22 | 26.82658 | 79.06614 | 33771 ft | 452 kts | 306° |
| 2026-05-06 14:23 | 26.86577 | 79.01103 | 33770 ft | 452 kts | 306° |
| 2026-05-06 14:23 | 26.90462 | 78.95634 | 33765 ft | 451 kts | 306° |
| 2026-05-06 14:24 | 26.94362 | 78.90137 | 33759 ft | 450 kts | 306° |
| 2026-05-06 14:24 | 26.98262 | 78.84634 | 33758 ft | 450 kts | 306° |
| 2026-05-06 14:25 | 27.02147 | 78.79143 | 33759 ft | 449 kts | 306° |
| 2026-05-06 14:25 | 27.06035 | 78.73640 | 33765 ft | 450 kts | 306° |
| 2026-05-06 14:26 | 27.09899 | 78.68168 | 33746 ft | 450 kts | 306° |
| 2026-05-06 14:26 | 27.13780 | 78.62664 | 33749 ft | 449 kts | 306° |
| 2026-05-06 14:27 | 27.17654 | 78.57163 | 33761 ft | 448 kts | 306° |
| 2026-05-06 14:27 | 27.21525 | 78.51660 | 33757 ft | 448 kts | 306° |
| 2026-05-06 14:28 | 27.25392 | 78.46154 | 33756 ft | 448 kts | 306° |
| 2026-05-06 14:28 | 27.29227 | 78.40687 | 33799 ft | 448 kts | 306° |
| 2026-05-06 14:29 | 27.33096 | 78.35164 | 33766 ft | 449 kts | 306° |
| 2026-05-06 14:29 | 27.36970 | 78.29629 | 33756 ft | 449 kts | 306° |
| 2026-05-06 14:30 | 27.40836 | 78.24098 | 33754 ft | 449 kts | 306° |
| 2026-05-06 14:30 | 27.44700 | 78.18563 | 33756 ft | 449 kts | 306° |
| 2026-05-06 14:31 | 27.47913 | 78.13954 | 33754 ft | 449 kts | 306° |
| 2026-05-06 14:31 | 27.52400 | 78.07510 | 33753 ft | 450 kts | 306° |
| 2026-05-06 14:32 | 27.55613 | 78.02890 | 33773 ft | 450 kts | 306° |
| 2026-05-06 14:32 | 27.59474 | 77.97332 | 33768 ft | 450 kts | 306° |
| 2026-05-06 14:33 | 27.63331 | 77.91772 | 33749 ft | 449 kts | 306° |
| 2026-05-06 14:33 | 27.67176 | 77.86224 | 33745 ft | 448 kts | 306° |
| 2026-05-06 14:34 | 27.71004 | 77.80692 | 33748 ft | 447 kts | 306° |
| 2026-05-06 14:34 | 27.74830 | 77.75156 | 33754 ft | 446 kts | 306° |
| 2026-05-06 14:35 | 27.78626 | 77.69656 | 33759 ft | 446 kts | 306° |
| 2026-05-06 14:35 | 27.82439 | 77.64123 | 33760 ft | 446 kts | 306° |
| 2026-05-06 14:36 | 27.86254 | 77.58582 | 33745 ft | 447 kts | 307° |
| 2026-05-06 14:36 | 27.90074 | 77.53026 | 33761 ft | 447 kts | 307° |
| 2026-05-06 14:37 | 27.93892 | 77.47467 | 33763 ft | 447 kts | 307° |
| 2026-05-06 14:37 | 27.97708 | 77.41901 | 33764 ft | 448 kts | 307° |
| 2026-05-06 14:38 | 28.01507 | 77.36355 | 33767 ft | 448 kts | 307° |
| 2026-05-06 14:38 | 28.05332 | 77.30764 | 33767 ft | 448 kts | 307° |
| 2026-05-06 14:39 | 28.09155 | 77.25166 | 33775 ft | 450 kts | 307° |
| 2026-05-06 14:39 | 28.12983 | 77.19556 | 33761 ft | 450 kts | 307° |
| 2026-05-06 14:40 | 28.16807 | 77.13944 | 33770 ft | 449 kts | 307° |
| 2026-05-06 14:40 | 28.20622 | 77.08338 | 33778 ft | 449 kts | 307° |
| 2026-05-06 14:41 | 28.24413 | 77.02759 | 33782 ft | 449 kts | 307° |
| 2026-05-06 14:41 | 28.28219 | 76.97150 | 33784 ft | 449 kts | 307° |
| 2026-05-06 14:42 | 28.32022 | 76.91539 | 33789 ft | 448 kts | 307° |
| 2026-05-06 14:42 | 28.35828 | 76.85915 | 33779 ft | 449 kts | 307° |
| 2026-05-06 14:43 | 28.39627 | 76.80297 | 33779 ft | 448 kts | 307° |
| 2026-05-06 14:43 | 28.43410 | 76.74693 | 33777 ft | 446 kts | 307° |
| 2026-05-06 14:44 | 28.47185 | 76.69095 | 33775 ft | 445 kts | 307° |
| 2026-05-06 14:45 | 28.52826 | 76.60714 | 33767 ft | 445 kts | 307° |
| 2026-05-06 14:45 | 28.56581 | 76.55125 | 33768 ft | 445 kts | 307° |
| 2026-05-06 14:46 | 28.60346 | 76.49515 | 33745 ft | 446 kts | 307° |
| 2026-05-06 14:46 | 28.64109 | 76.43901 | 33764 ft | 446 kts | 307° |
| 2026-05-06 14:47 | 28.67873 | 76.38276 | 33772 ft | 447 kts | 307° |
| 2026-05-06 14:47 | 28.71636 | 76.32647 | 33766 ft | 447 kts | 307° |
| 2026-05-06 14:48 | 28.75381 | 76.27036 | 33766 ft | 447 kts | 307° |
| 2026-05-06 14:48 | 28.79143 | 76.21393 | 33758 ft | 447 kts | 307° |
| 2026-05-06 14:49 | 28.82903 | 76.15745 | 33778 ft | 447 kts | 307° |
| 2026-05-06 14:49 | 28.86665 | 76.10086 | 33756 ft | 447 kts | 307° |
| 2026-05-06 14:50 | 28.90426 | 76.04422 | 33752 ft | 447 kts | 307° |
| 2026-05-06 14:50 | 28.94172 | 75.98771 | 33753 ft | 446 kts | 307° |
| 2026-05-06 14:51 | 28.97897 | 75.93145 | 33776 ft | 446 kts | 307° |
| 2026-05-06 14:51 | 29.01639 | 75.87486 | 33764 ft | 446 kts | 307° |
| 2026-05-06 14:52 | 29.05376 | 75.81828 | 33750 ft | 446 kts | 307° |
| 2026-05-06 14:52 | 29.09085 | 75.76203 | 33757 ft | 446 kts | 307° |
| 2026-05-06 14:53 | 29.12811 | 75.70544 | 33758 ft | 445 kts | 307° |
| 2026-05-06 14:53 | 29.16531 | 75.64888 | 33758 ft | 444 kts | 307° |
| 2026-05-06 14:54 | 29.20242 | 75.59237 | 33752 ft | 443 kts | 307° |
| 2026-05-06 14:54 | 29.23944 | 75.53591 | 33753 ft | 443 kts | 307° |
| 2026-05-06 14:55 | 29.27644 | 75.47942 | 33748 ft | 443 kts | 307° |
| 2026-05-06 14:55 | 29.31315 | 75.42329 | 33740 ft | 443 kts | 307° |
| 2026-05-06 14:56 | 29.35015 | 75.36654 | 33747 ft | 444 kts | 307° |
| 2026-05-06 14:56 | 29.38700 | 75.30962 | 33745 ft | 445 kts | 307° |
| 2026-05-06 14:57 | 29.42392 | 75.25244 | 33748 ft | 446 kts | 307° |
| 2026-05-06 14:57 | 29.46086 | 75.19520 | 33743 ft | 446 kts | 307° |
| 2026-05-06 14:58 | 29.49780 | 75.13790 | 33742 ft | 446 kts | 307° |
| 2026-05-06 14:58 | 29.53473 | 75.08053 | 33742 ft | 446 kts | 307° |
| 2026-05-06 14:59 | 29.57146 | 75.02339 | 33730 ft | 447 kts | 307° |
| 2026-05-06 14:59 | 29.60844 | 74.96581 | 33743 ft | 448 kts | 307° |
| 2026-05-06 15:00 | 29.64552 | 74.90797 | 33740 ft | 449 kts | 307° |
| 2026-05-06 15:00 | 29.68251 | 74.85018 | 33742 ft | 449 kts | 307° |
| 2026-05-06 15:01 | 29.71928 | 74.79267 | 33742 ft | 449 kts | 307° |
| 2026-05-06 15:01 | 29.75631 | 74.73467 | 33736 ft | 449 kts | 307° |
| 2026-05-06 15:02 | 29.79336 | 74.67653 | 33740 ft | 450 kts | 307° |
| 2026-05-06 15:02 | 29.83040 | 74.61834 | 33735 ft | 450 kts | 307° |
| 2026-05-06 15:03 | 29.86744 | 74.56009 | 33740 ft | 451 kts | 307° |
| 2026-05-06 15:03 | 29.90448 | 74.50173 | 33736 ft | 451 kts | 307° |
| 2026-05-06 15:04 | 29.94129 | 74.44365 | 33728 ft | 451 kts | 307° |
| 2026-05-06 15:04 | 29.97830 | 74.38518 | 33732 ft | 451 kts | 307° |
| 2026-05-06 15:05 | 30.01526 | 74.32669 | 33727 ft | 450 kts | 307° |
| 2026-05-06 15:05 | 30.05217 | 74.26819 | 33739 ft | 451 kts | 308° |
| 2026-05-06 15:06 | 30.08913 | 74.20955 | 33726 ft | 451 kts | 308° |
| 2026-05-06 15:06 | 30.12604 | 74.15088 | 33730 ft | 451 kts | 308° |
| 2026-05-06 15:07 | 30.16294 | 74.09215 | 33730 ft | 451 kts | 308° |
| 2026-05-06 15:07 | 30.19956 | 74.03378 | 33728 ft | 451 kts | 307° |
| 2026-05-06 15:08 | 30.23639 | 73.97500 | 33718 ft | 450 kts | 307° |
| 2026-05-06 15:08 | 30.27314 | 73.91632 | 33723 ft | 449 kts | 307° |
| 2026-05-06 15:09 | 30.30977 | 73.85781 | 33729 ft | 448 kts | 307° |
| 2026-05-06 15:09 | 30.34630 | 73.79937 | 33730 ft | 447 kts | 307° |
| 2026-05-06 15:10 | 30.38273 | 73.74099 | 33735 ft | 447 kts | 307° |
| 2026-05-06 15:10 | 30.41914 | 73.68254 | 33734 ft | 447 kts | 307° |
| 2026-05-06 15:11 | 30.45531 | 73.62439 | 33737 ft | 447 kts | 307° |
| 2026-05-06 15:11 | 30.49163 | 73.56592 | 33738 ft | 447 kts | 308° |
| 2026-05-06 15:12 | 30.52796 | 73.50735 | 33745 ft | 447 kts | 308° |
| 2026-05-06 15:12 | 30.56432 | 73.44864 | 33751 ft | 448 kts | 308° |
| 2026-05-06 15:13 | 30.60063 | 73.38994 | 33737 ft | 448 kts | 308° |
| 2026-05-06 15:13 | 30.63692 | 73.33115 | 33733 ft | 448 kts | 308° |
| 2026-05-06 15:14 | 30.67328 | 73.27219 | 33739 ft | 448 kts | 307° |
| 2026-05-06 15:14 | 30.70957 | 73.21332 | 33754 ft | 448 kts | 308° |
| 2026-05-06 15:15 | 30.74566 | 73.15481 | 33734 ft | 448 kts | 308° |
| 2026-05-06 15:15 | 30.78198 | 73.09582 | 33748 ft | 449 kts | 308° |
| 2026-05-06 15:16 | 30.81830 | 73.03672 | 33750 ft | 449 kts | 308° |
| 2026-05-06 15:16 | 30.84858 | 72.98738 | 33751 ft | 449 kts | 308° |
| 2026-05-06 15:17 | 30.88488 | 72.92813 | 33727 ft | 449 kts | 308° |
| 2026-05-06 15:17 | 30.92114 | 72.86886 | 33759 ft | 449 kts | 308° |
| 2026-05-06 15:18 | 30.95719 | 72.80985 | 33743 ft | 450 kts | 308° |
| 2026-05-06 15:18 | 30.99351 | 72.75032 | 33736 ft | 450 kts | 308° |
| 2026-05-06 15:19 | 31.02978 | 72.69077 | 33751 ft | 450 kts | 308° |
| 2026-05-06 15:19 | 31.06611 | 72.63104 | 33733 ft | 451 kts | 308° |
| 2026-05-06 15:20 | 31.10237 | 72.57131 | 33730 ft | 450 kts | 307° |
| 2026-05-06 15:20 | 31.13830 | 72.51204 | 33757 ft | 449 kts | 308° |
| 2026-05-06 15:21 | 31.17446 | 72.45231 | 33749 ft | 450 kts | 308° |
| 2026-05-06 15:21 | 31.21058 | 72.39254 | 33742 ft | 450 kts | 308° |
| 2026-05-06 15:22 | 31.24650 | 72.33305 | 33734 ft | 450 kts | 308° |
| 2026-05-06 15:22 | 31.28081 | 72.27173 | 33736 ft | 453 kts | 302° |
| 2026-05-06 15:23 | 31.31035 | 72.20660 | 33732 ft | 452 kts | 301° |
| 2026-05-06 15:23 | 31.34006 | 72.14184 | 33730 ft | 451 kts | 301° |
| 2026-05-06 15:24 | 31.36987 | 72.07739 | 33743 ft | 450 kts | 302° |
| 2026-05-06 15:24 | 31.39953 | 72.01330 | 33733 ft | 450 kts | 302° |
| 2026-05-06 15:25 | 31.42951 | 71.94839 | 33733 ft | 450 kts | 302° |
| 2026-05-06 15:25 | 31.45906 | 71.88429 | 33712 ft | 450 kts | 301° |
| 2026-05-06 15:26 | 31.48874 | 71.81978 | 33724 ft | 450 kts | 301° |
| 2026-05-06 15:26 | 31.51839 | 71.75522 | 33729 ft | 450 kts | 301° |
| 2026-05-06 15:27 | 31.54807 | 71.69048 | 33742 ft | 450 kts | 301° |
| 2026-05-06 15:27 | 31.57776 | 71.62563 | 33728 ft | 451 kts | 302° |
| 2026-05-06 15:28 | 31.60729 | 71.56099 | 33720 ft | 452 kts | 301° |
| 2026-05-06 15:28 | 31.63695 | 71.49584 | 33717 ft | 452 kts | 301° |
| 2026-05-06 15:29 | 31.66658 | 71.43062 | 33727 ft | 453 kts | 301° |
| 2026-05-06 15:29 | 31.69620 | 71.36530 | 33726 ft | 453 kts | 301° |
| 2026-05-06 15:30 | 31.72558 | 71.30042 | 33726 ft | 453 kts | 301° |
| 2026-05-06 15:30 | 31.75517 | 71.23494 | 33723 ft | 453 kts | 301° |
| 2026-05-06 15:31 | 31.78470 | 71.16950 | 33725 ft | 453 kts | 301° |
| 2026-05-06 15:31 | 31.81428 | 71.10384 | 33723 ft | 454 kts | 301° |
| 2026-05-06 15:32 | 31.85856 | 71.00529 | 33723 ft | 454 kts | 301° |
| 2026-05-06 15:32 | 31.88799 | 70.93991 | 33719 ft | 452 kts | 302° |
| 2026-05-06 15:33 | 31.92677 | 70.88271 | 33735 ft | 447 kts | 318° |
| 2026-05-06 15:33 | 31.97643 | 70.83921 | 33732 ft | 446 kts | 330° |
| 2026-05-06 15:34 | 32.03019 | 70.80235 | 33726 ft | 448 kts | 329° |
| 2026-05-06 15:34 | 32.08389 | 70.76468 | 33729 ft | 449 kts | 329° |
| 2026-05-06 15:35 | 32.13723 | 70.72696 | 33728 ft | 450 kts | 329° |
| 2026-05-06 15:35 | 32.19098 | 70.68887 | 33749 ft | 450 kts | 329° |
| 2026-05-06 15:36 | 32.24466 | 70.65076 | 33735 ft | 449 kts | 329° |
| 2026-05-06 15:36 | 32.29816 | 70.61275 | 33736 ft | 448 kts | 329° |
| 2026-05-06 15:37 | 32.35157 | 70.57475 | 33734 ft | 447 kts | 329° |
| 2026-05-06 15:37 | 32.40458 | 70.53698 | 33715 ft | 447 kts | 329° |
| 2026-05-06 15:38 | 32.45783 | 70.49897 | 33744 ft | 447 kts | 329° |
| 2026-05-06 15:38 | 32.51124 | 70.46081 | 33761 ft | 448 kts | 329° |
| 2026-05-06 15:39 | 32.56470 | 70.42256 | 33770 ft | 449 kts | 329° |
| 2026-05-06 15:39 | 32.61828 | 70.38417 | 33765 ft | 450 kts | 329° |
| 2026-05-06 15:40 | 32.67195 | 70.34569 | 33774 ft | 450 kts | 329° |
| 2026-05-06 15:40 | 32.72555 | 70.30734 | 33799 ft | 450 kts | 329° |
| 2026-05-06 15:41 | 32.77891 | 70.26913 | 33795 ft | 450 kts | 329° |
| 2026-05-06 15:41 | 32.83250 | 70.23065 | 33800 ft | 449 kts | 329° |
| 2026-05-06 15:42 | 32.88604 | 70.19214 | 33815 ft | 449 kts | 329° |
| 2026-05-06 15:42 | 32.93927 | 70.15381 | 33830 ft | 450 kts | 329° |
| 2026-05-06 15:43 | 32.99301 | 70.11504 | 33823 ft | 451 kts | 329° |
| 2026-05-06 15:43 | 33.04679 | 70.07620 | 33820 ft | 452 kts | 329° |
| 2026-05-06 15:44 | 33.10098 | 70.03821 | 33849 ft | 452 kts | 332° |
| 2026-05-06 15:44 | 33.15647 | 70.00352 | 33839 ft | 452 kts | 332° |
| 2026-05-06 15:45 | 33.21219 | 69.96866 | 33849 ft | 452 kts | 332° |
| 2026-05-06 15:45 | 33.26784 | 69.93362 | 33849 ft | 452 kts | 332° |
| 2026-05-06 15:46 | 33.32350 | 69.89844 | 33884 ft | 452 kts | 332° |
| 2026-05-06 15:46 | 33.37905 | 69.86327 | 33865 ft | 451 kts | 332° |
| 2026-05-06 15:47 | 33.43415 | 69.82836 | 33875 ft | 450 kts | 332° |
| 2026-05-06 15:47 | 33.48954 | 69.79318 | 33910 ft | 450 kts | 332° |
| 2026-05-06 15:48 | 33.54500 | 69.75804 | 33908 ft | 450 kts | 332° |
| 2026-05-06 15:48 | 33.60071 | 69.72353 | 33916 ft | 451 kts | 333° |
| 2026-05-06 15:49 | 33.65649 | 69.68908 | 33928 ft | 451 kts | 333° |
| 2026-05-06 15:49 | 33.71191 | 69.65471 | 33948 ft | 451 kts | 333° |
| 2026-05-06 15:50 | 33.76768 | 69.62000 | 33956 ft | 451 kts | 333° |
| 2026-05-06 15:50 | 33.82348 | 69.58522 | 33986 ft | 451 kts | 332° |
| 2026-05-06 15:51 | 33.87921 | 69.55042 | 33980 ft | 451 kts | 332° |
| 2026-05-06 15:51 | 33.93462 | 69.51578 | 33981 ft | 451 kts | 332° |
| 2026-05-06 15:52 | 33.99045 | 69.48082 | 33985 ft | 452 kts | 332° |
| 2026-05-06 15:52 | 34.04637 | 69.44575 | 33984 ft | 453 kts | 332° |
| 2026-05-06 15:53 | 34.10237 | 69.41059 | 33967 ft | 453 kts | 332° |
| 2026-05-06 15:53 | 34.15829 | 69.37552 | 33979 ft | 453 kts | 332° |
| 2026-05-06 15:54 | 34.21400 | 69.34067 | 33968 ft | 453 kts | 332° |
| 2026-05-06 15:54 | 34.26999 | 69.30559 | 33949 ft | 452 kts | 332° |
| 2026-05-06 15:55 | 34.32581 | 69.27052 | 33956 ft | 452 kts | 332° |
| 2026-05-06 15:55 | 34.38161 | 69.23542 | 33952 ft | 451 kts | 332° |
| 2026-05-06 15:56 | 34.43694 | 69.20053 | 33959 ft | 451 kts | 332° |
| 2026-05-06 15:56 | 34.49280 | 69.16531 | 33950 ft | 453 kts | 332° |
| 2026-05-06 15:57 | 34.54873 | 69.12980 | 33956 ft | 454 kts | 332° |
| 2026-05-06 15:57 | 34.60463 | 69.09371 | 33976 ft | 455 kts | 332° |
| 2026-05-06 15:58 | 34.66069 | 69.05738 | 33972 ft | 456 kts | 332° |
| 2026-05-06 15:58 | 34.71683 | 69.02102 | 33981 ft | 456 kts | 332° |
| 2026-05-06 15:59 | 34.77256 | 68.98490 | 34011 ft | 457 kts | 332° |
| 2026-05-06 15:59 | 34.82868 | 68.94847 | 34020 ft | 457 kts | 332° |
| 2026-05-06 16:00 | 34.88474 | 68.91204 | 34036 ft | 457 kts | 332° |
| 2026-05-06 16:00 | 34.94089 | 68.87549 | 34044 ft | 457 kts | 332° |
| 2026-05-06 16:01 | 34.99696 | 68.83892 | 34100 ft | 458 kts | 332° |
| 2026-05-06 16:01 | 35.05278 | 68.80247 | 34135 ft | 459 kts | 332° |
| 2026-05-06 16:02 | 35.10918 | 68.76559 | 34126 ft | 460 kts | 331° |
| 2026-05-06 16:02 | 35.16564 | 68.72860 | 34157 ft | 461 kts | 331° |
| 2026-05-06 16:03 | 35.22216 | 68.69150 | 34172 ft | 460 kts | 331° |
| 2026-05-06 16:03 | 35.27860 | 68.65440 | 34173 ft | 460 kts | 331° |
| 2026-05-06 16:04 | 35.33466 | 68.61750 | 34177 ft | 459 kts | 331° |
| 2026-05-06 16:04 | 35.39084 | 68.58046 | 34169 ft | 458 kts | 331° |
| 2026-05-06 16:05 | 35.43751 | 68.54965 | 34169 ft | 456 kts | 331° |
| 2026-05-06 16:05 | 35.49339 | 68.51269 | 34128 ft | 456 kts | 331° |
| 2026-05-06 16:06 | 35.54916 | 68.47574 | 34114 ft | 456 kts | 331° |
| 2026-05-06 16:06 | 35.60498 | 68.43871 | 34123 ft | 456 kts | 332° |
| 2026-05-06 16:07 | 35.66068 | 68.40152 | 34099 ft | 455 kts | 331° |
| 2026-05-06 16:07 | 35.71622 | 68.36426 | 34105 ft | 455 kts | 331° |
| 2026-05-06 16:08 | 35.77184 | 68.32690 | 34122 ft | 455 kts | 331° |
| 2026-05-06 16:08 | 35.82707 | 68.28975 | 34119 ft | 455 kts | 331° |
| 2026-05-06 16:09 | 35.88274 | 68.25227 | 34097 ft | 456 kts | 331° |
| 2026-05-06 16:09 | 35.93857 | 68.21460 | 34102 ft | 457 kts | 331° |
| 2026-05-06 16:10 | 35.99436 | 68.17691 | 34084 ft | 457 kts | 331° |
| 2026-05-06 16:10 | 36.05012 | 68.13918 | 34070 ft | 457 kts | 330° |
| 2026-05-06 16:11 | 36.10551 | 68.10163 | 34071 ft | 457 kts | 330° |
| 2026-05-06 16:11 | 36.16126 | 68.06378 | 34053 ft | 457 kts | 330° |
| 2026-05-06 16:12 | 36.21708 | 68.02583 | 34031 ft | 457 kts | 330° |
| 2026-05-06 16:12 | 36.27290 | 67.98780 | 34032 ft | 457 kts | 330° |
| 2026-05-06 16:13 | 36.32864 | 67.94977 | 34017 ft | 457 kts | 330° |
| 2026-05-06 16:13 | 36.38394 | 67.91198 | 34006 ft | 456 kts | 330° |
| 2026-05-06 16:14 | 36.43961 | 67.87386 | 33997 ft | 456 kts | 330° |
| 2026-05-06 16:14 | 36.49519 | 67.83576 | 33988 ft | 456 kts | 330° |
| 2026-05-06 16:15 | 36.55079 | 67.79756 | 33975 ft | 456 kts | 330° |
| 2026-05-06 16:15 | 36.60604 | 67.75956 | 33973 ft | 456 kts | 330° |
| 2026-05-06 16:16 | 36.66163 | 67.72124 | 33979 ft | 457 kts | 330° |
| 2026-05-06 16:16 | 36.71731 | 67.68281 | 33947 ft | 457 kts | 330° |
| 2026-05-06 16:17 | 36.77302 | 67.64444 | 33936 ft | 457 kts | 330° |
| 2026-05-06 16:17 | 36.82871 | 67.60611 | 33936 ft | 457 kts | 330° |
| 2026-05-06 16:18 | 36.88439 | 67.56770 | 33922 ft | 457 kts | 330° |
| 2026-05-06 16:18 | 36.94001 | 67.52926 | 33911 ft | 457 kts | 330° |
| 2026-05-06 16:19 | 36.99568 | 67.49069 | 33914 ft | 458 kts | 330° |
| 2026-05-06 16:19 | 37.05107 | 67.45225 | 33904 ft | 458 kts | 330° |
| 2026-05-06 16:20 | 37.10684 | 67.41349 | 33901 ft | 458 kts | 330° |
| 2026-05-06 16:20 | 37.16273 | 67.37459 | 33899 ft | 459 kts | 330° |
| 2026-05-06 16:21 | 37.21854 | 67.33560 | 33898 ft | 459 kts | 329° |
| 2026-05-06 16:21 | 37.27333 | 67.29438 | 33912 ft | 459 kts | 328° |
| 2026-05-06 16:22 | 37.32769 | 67.25220 | 33916 ft | 459 kts | 327° |
| 2026-05-06 16:22 | 37.38217 | 67.21020 | 33907 ft | 459 kts | 327° |
| 2026-05-06 16:23 | 37.43640 | 67.16859 | 33910 ft | 460 kts | 327° |
| 2026-05-06 16:23 | 37.49117 | 67.12659 | 33910 ft | 461 kts | 327° |
| 2026-05-06 16:24 | 37.54603 | 67.08446 | 33907 ft | 461 kts | 327° |
| 2026-05-06 16:24 | 37.60055 | 67.04249 | 33916 ft | 462 kts | 327° |
| 2026-05-06 16:25 | 37.65548 | 67.00013 | 33934 ft | 462 kts | 327° |
| 2026-05-06 16:25 | 37.71041 | 66.95770 | 33956 ft | 462 kts | 327° |
| 2026-05-06 16:26 | 37.76536 | 66.91518 | 33950 ft | 462 kts | 327° |
| 2026-05-06 16:26 | 37.82019 | 66.87267 | 33972 ft | 463 kts | 327° |
| 2026-05-06 16:27 | 37.87520 | 66.82994 | 33998 ft | 464 kts | 327° |
| 2026-05-06 16:27 | 37.93000 | 66.78730 | 33993 ft | 466 kts | 327° |
| 2026-05-06 16:28 | 37.98527 | 66.74422 | 34016 ft | 467 kts | 327° |
| 2026-05-06 16:28 | 38.04068 | 66.70086 | 34014 ft | 468 kts | 326° |
| 2026-05-06 16:29 | 38.09590 | 66.65695 | 34032 ft | 468 kts | 326° |
| 2026-05-06 16:29 | 38.15107 | 66.61294 | 34004 ft | 468 kts | 326° |
| 2026-05-06 16:30 | 38.19689 | 66.57637 | 34011 ft | 467 kts | 326° |
| 2026-05-06 16:30 | 38.26096 | 66.52519 | 34008 ft | 468 kts | 326° |
| 2026-05-06 16:31 | 38.31618 | 66.48101 | 33987 ft | 469 kts | 326° |
| 2026-05-06 16:31 | 38.37149 | 66.43667 | 33979 ft | 470 kts | 326° |
| 2026-05-06 16:32 | 38.42700 | 66.39207 | 33975 ft | 471 kts | 326° |
| 2026-05-06 16:32 | 38.48221 | 66.34765 | 33960 ft | 471 kts | 326° |
| 2026-05-06 16:33 | 38.53778 | 66.30284 | 33951 ft | 471 kts | 325° |
| 2026-05-06 16:34 | 38.62065 | 66.23589 | 33934 ft | 470 kts | 325° |
| 2026-05-06 16:34 | 38.67599 | 66.19193 | 33926 ft | 470 kts | 326° |
| 2026-05-06 16:35 | 38.73186 | 66.14802 | 33931 ft | 470 kts | 326° |
| 2026-05-06 16:35 | 38.78747 | 66.10417 | 33918 ft | 471 kts | 326° |
| 2026-05-06 16:36 | 38.84338 | 66.05989 | 33917 ft | 471 kts | 326° |
| 2026-05-06 16:36 | 38.89918 | 66.01556 | 33923 ft | 471 kts | 326° |
| 2026-05-06 16:37 | 38.95496 | 65.97116 | 33917 ft | 471 kts | 326° |
| 2026-05-06 16:37 | 39.01042 | 65.92693 | 33927 ft | 472 kts | 325° |
| 2026-05-06 16:38 | 39.06631 | 65.88228 | 33918 ft | 472 kts | 325° |
| 2026-05-06 16:38 | 39.12214 | 65.83760 | 33924 ft | 472 kts | 325° |
| 2026-05-06 16:39 | 39.17790 | 65.79290 | 33934 ft | 472 kts | 325° |
| 2026-05-06 16:39 | 39.23330 | 65.74839 | 33928 ft | 472 kts | 325° |
| 2026-05-06 16:40 | 39.28940 | 65.70323 | 33916 ft | 472 kts | 325° |
| 2026-05-06 16:40 | 39.34481 | 65.65855 | 33914 ft | 472 kts | 325° |
| 2026-05-06 16:41 | 39.40052 | 65.61354 | 33921 ft | 472 kts | 325° |
| 2026-05-06 16:41 | 39.45631 | 65.56837 | 33924 ft | 472 kts | 325° |
| 2026-05-06 16:42 | 39.51166 | 65.52348 | 33923 ft | 472 kts | 325° |
| 2026-05-06 16:42 | 39.56731 | 65.47826 | 33924 ft | 472 kts | 325° |
| 2026-05-06 16:43 | 39.62302 | 65.43290 | 33931 ft | 472 kts | 325° |
| 2026-05-06 16:43 | 39.67868 | 65.38750 | 33931 ft | 472 kts | 325° |
| 2026-05-06 16:44 | 39.73426 | 65.34207 | 33926 ft | 472 kts | 324° |
| 2026-05-06 16:44 | 39.78990 | 65.29651 | 33937 ft | 472 kts | 324° |
| 2026-05-06 16:45 | 39.84507 | 65.25124 | 33928 ft | 472 kts | 324° |
| 2026-05-06 16:45 | 39.90067 | 65.20554 | 33935 ft | 471 kts | 324° |
| 2026-05-06 16:46 | 39.95610 | 65.15988 | 33932 ft | 471 kts | 324° |
| 2026-05-06 16:46 | 40.01139 | 65.11425 | 33935 ft | 470 kts | 324° |
| 2026-05-06 16:47 | 40.06626 | 65.06888 | 33925 ft | 470 kts | 324° |
| 2026-05-06 16:47 | 40.12152 | 65.02310 | 33937 ft | 470 kts | 324° |
| 2026-05-06 16:48 | 40.17672 | 64.97728 | 33938 ft | 470 kts | 324° |
| 2026-05-06 16:48 | 40.23181 | 64.93146 | 33939 ft | 469 kts | 324° |
| 2026-05-06 16:49 | 40.28698 | 64.88549 | 33921 ft | 469 kts | 324° |
| 2026-05-06 16:49 | 40.34205 | 64.83950 | 33917 ft | 469 kts | 324° |
| 2026-05-06 16:50 | 40.39700 | 64.79353 | 33916 ft | 469 kts | 324° |
| 2026-05-06 16:50 | 40.45170 | 64.74768 | 33921 ft | 469 kts | 323° |
| 2026-05-06 16:51 | 40.50666 | 64.70151 | 33912 ft | 469 kts | 323° |
| 2026-05-06 16:51 | 40.55245 | 64.66299 | 33921 ft | 469 kts | 323° |
| 2026-05-06 16:52 | 40.61665 | 64.60885 | 33917 ft | 470 kts | 323° |
| 2026-05-06 16:52 | 40.66254 | 64.57009 | 33906 ft | 471 kts | 323° |
| 2026-05-06 16:53 | 40.72674 | 64.51575 | 33908 ft | 471 kts | 323° |
| 2026-05-06 16:53 | 40.77298 | 64.47653 | 33900 ft | 472 kts | 323° |
| 2026-05-06 16:54 | 40.82823 | 64.42958 | 33903 ft | 472 kts | 323° |
| 2026-05-06 16:54 | 40.88344 | 64.38257 | 33924 ft | 472 kts | 323° |
| 2026-05-06 16:55 | 40.93839 | 64.33569 | 33903 ft | 473 kts | 323° |
| 2026-05-06 16:55 | 40.99388 | 64.28824 | 33908 ft | 474 kts | 323° |
| 2026-05-06 16:56 | 41.04934 | 64.24073 | 33917 ft | 475 kts | 323° |
| 2026-05-06 16:56 | 41.10484 | 64.19310 | 33912 ft | 476 kts | 323° |
| 2026-05-06 16:57 | 41.16045 | 64.14526 | 33916 ft | 476 kts | 323° |
| 2026-05-06 16:57 | 41.21610 | 64.09730 | 33903 ft | 477 kts | 322° |
| 2026-05-06 16:58 | 41.27171 | 64.04926 | 33910 ft | 477 kts | 322° |
| 2026-05-06 16:58 | 41.32711 | 64.00131 | 33911 ft | 478 kts | 323° |
| 2026-05-06 16:59 | 41.38283 | 63.95299 | 33915 ft | 478 kts | 322° |
| 2026-05-06 16:59 | 41.43851 | 63.90463 | 33895 ft | 477 kts | 322° |
| 2026-05-06 17:00 | 41.49409 | 63.85627 | 33895 ft | 477 kts | 322° |
| 2026-05-06 17:00 | 41.54933 | 63.80809 | 33906 ft | 476 kts | 322° |
| 2026-05-06 17:01 | 41.60487 | 63.75954 | 33893 ft | 477 kts | 322° |
| 2026-05-06 17:01 | 41.66036 | 63.71094 | 33882 ft | 476 kts | 322° |
| 2026-05-06 17:02 | 41.71570 | 63.66236 | 33886 ft | 475 kts | 322° |
| 2026-05-06 17:02 | 41.77096 | 63.61376 | 33874 ft | 475 kts | 322° |
| 2026-05-06 17:03 | 41.82617 | 63.56509 | 33877 ft | 475 kts | 322° |
| 2026-05-06 17:03 | 41.88101 | 63.51665 | 33879 ft | 475 kts | 322° |
| 2026-05-06 17:04 | 41.93625 | 63.46775 | 33874 ft | 476 kts | 322° |
| 2026-05-06 17:04 | 41.99162 | 63.41863 | 33875 ft | 476 kts | 322° |
| 2026-05-06 17:05 | 42.04686 | 63.36953 | 33876 ft | 476 kts | 322° |
| 2026-05-06 17:05 | 42.10219 | 63.32024 | 33870 ft | 477 kts | 322° |
| 2026-05-06 17:06 | 42.15759 | 63.27079 | 33892 ft | 477 kts | 322° |
| 2026-05-06 17:06 | 42.21300 | 63.22121 | 33876 ft | 478 kts | 322° |
| 2026-05-06 17:07 | 42.26840 | 63.17154 | 33871 ft | 478 kts | 322° |
| 2026-05-06 17:07 | 42.32363 | 63.12191 | 33893 ft | 479 kts | 322° |
| 2026-05-06 17:08 | 42.37913 | 63.07195 | 33878 ft | 480 kts | 322° |
| 2026-05-06 17:08 | 42.43472 | 63.02181 | 33874 ft | 480 kts | 322° |
| 2026-05-06 17:09 | 42.48995 | 62.97191 | 33887 ft | 480 kts | 322° |
| 2026-05-06 17:09 | 42.54561 | 62.92150 | 33883 ft | 481 kts | 322° |
| 2026-05-06 17:10 | 42.60129 | 62.87096 | 33876 ft | 482 kts | 322° |
| 2026-05-06 17:10 | 42.65704 | 62.82025 | 33882 ft | 482 kts | 321° |
| 2026-05-06 17:11 | 42.71273 | 62.76948 | 33886 ft | 482 kts | 321° |
| 2026-05-06 17:11 | 42.76843 | 62.71859 | 33867 ft | 482 kts | 321° |
| 2026-05-06 17:12 | 42.82380 | 62.66788 | 33872 ft | 483 kts | 321° |
| 2026-05-06 17:12 | 42.87968 | 62.61659 | 33877 ft | 484 kts | 321° |
| 2026-05-06 17:13 | 42.93557 | 62.56518 | 33874 ft | 485 kts | 321° |
| 2026-05-06 17:13 | 42.99149 | 62.51363 | 33878 ft | 485 kts | 321° |
| 2026-05-06 17:14 | 43.04750 | 62.46189 | 33873 ft | 486 kts | 321° |
| 2026-05-06 17:14 | 43.10352 | 62.41002 | 33871 ft | 486 kts | 321° |
| 2026-05-06 17:15 | 43.15946 | 62.35811 | 33870 ft | 485 kts | 321° |
| 2026-05-06 17:15 | 43.21488 | 62.30657 | 33865 ft | 484 kts | 321° |
| 2026-05-06 17:16 | 43.27055 | 62.25466 | 33869 ft | 483 kts | 321° |
| 2026-05-06 17:16 | 43.32608 | 62.20277 | 33874 ft | 483 kts | 321° |
| 2026-05-06 17:17 | 43.38161 | 62.15074 | 34180 ft | 484 kts | 325° |
| 2026-05-06 17:17 | 43.43740 | 62.09840 | 34049 ft | 486 kts | 325° |
| 2026-05-06 17:17 | 43.46555 | 62.07391 | 33722 ft | 482 kts | 326° |
| 2026-05-06 17:18 | 43.49594 | 62.05308 | 33802 ft | 483 kts | 331° |
| 2026-05-06 17:18 | 43.55682 | 62.01490 | 33852 ft | 484 kts | 330° |
| 2026-05-06 17:19 | 43.61811 | 61.97564 | 33856 ft | 486 kts | 330° |
| 2026-05-06 17:19 | 43.67952 | 61.93585 | 33870 ft | 488 kts | 330° |
| 2026-05-06 17:20 | 43.74111 | 61.89578 | 33869 ft | 490 kts | 330° |
| 2026-05-06 17:20 | 43.80287 | 61.85554 | 33881 ft | 490 kts | 330° |
| 2026-05-06 17:21 | 43.86460 | 61.81523 | 33868 ft | 490 kts | 330° |
| 2026-05-06 17:21 | 43.92590 | 61.77512 | 33873 ft | 490 kts | 330° |
| 2026-05-06 17:22 | 43.98749 | 61.73473 | 33884 ft | 489 kts | 330° |
| 2026-05-06 17:22 | 44.04916 | 61.69417 | 33878 ft | 490 kts | 330° |
| 2026-05-06 17:23 | 44.11084 | 61.65352 | 33870 ft | 490 kts | 329° |
| 2026-05-06 17:23 | 44.17258 | 61.61275 | 33878 ft | 492 kts | 329° |
| 2026-05-06 17:24 | 44.23459 | 61.57181 | 33878 ft | 495 kts | 329° |
| 2026-05-06 17:24 | 44.29698 | 61.53056 | 33878 ft | 497 kts | 329° |
| 2026-05-06 17:25 | 44.35956 | 61.48907 | 33877 ft | 500 kts | 329° |
| 2026-05-06 17:25 | 44.42261 | 61.44716 | 33886 ft | 502 kts | 329° |
| 2026-05-06 17:26 | 44.48539 | 61.40533 | 33886 ft | 504 kts | 329° |
| 2026-05-06 17:26 | 44.54874 | 61.36303 | 33885 ft | 504 kts | 329° |
| 2026-05-06 17:27 | 44.61215 | 61.32059 | 33882 ft | 503 kts | 329° |
| 2026-05-06 17:27 | 44.67528 | 61.27823 | 33881 ft | 501 kts | 329° |
| 2026-05-06 17:28 | 44.73810 | 61.23596 | 33892 ft | 500 kts | 329° |
| 2026-05-06 17:28 | 44.80078 | 61.19368 | 33885 ft | 498 kts | 329° |
| 2026-05-06 17:29 | 44.86294 | 61.15165 | 33888 ft | 498 kts | 329° |
| 2026-05-06 17:29 | 44.92544 | 61.10928 | 33896 ft | 498 kts | 328° |
| 2026-05-06 17:30 | 44.98798 | 61.06678 | 33892 ft | 499 kts | 328° |
| 2026-05-06 17:30 | 45.05068 | 61.02408 | 33919 ft | 500 kts | 328° |
| 2026-05-06 17:31 | 45.11309 | 60.98146 | 33897 ft | 502 kts | 328° |
| 2026-05-06 17:31 | 45.17621 | 60.93827 | 33892 ft | 503 kts | 328° |
| 2026-05-06 17:32 | 45.23926 | 60.89501 | 33920 ft | 503 kts | 328° |
| 2026-05-06 17:32 | 45.30232 | 60.85163 | 33904 ft | 504 kts | 328° |
| 2026-05-06 17:33 | 45.36549 | 60.80809 | 33895 ft | 505 kts | 328° |
| 2026-05-06 17:33 | 45.42606 | 60.76021 | 33895 ft | 497 kts | 319° |
| 2026-05-06 17:34 | 45.47855 | 60.69816 | 33902 ft | 488 kts | 310° |
| 2026-05-06 17:34 | 45.52867 | 60.63268 | 33900 ft | 489 kts | 311° |
| 2026-05-06 17:35 | 45.57918 | 60.56759 | 33898 ft | 489 kts | 311° |
| 2026-05-06 17:35 | 45.62978 | 60.50250 | 33901 ft | 490 kts | 311° |
| 2026-05-06 17:36 | 45.70549 | 60.40482 | 33898 ft | 490 kts | 311° |
| 2026-05-06 17:36 | 45.75609 | 60.33928 | 33916 ft | 490 kts | 311° |
| 2026-05-06 17:37 | 45.80665 | 60.27361 | 33907 ft | 491 kts | 311° |
| 2026-05-06 17:37 | 45.85723 | 60.20774 | 33904 ft | 491 kts | 311° |
| 2026-05-06 17:38 | 45.90774 | 60.14182 | 33902 ft | 491 kts | 311° |
| 2026-05-06 17:38 | 45.95822 | 60.07573 | 33906 ft | 491 kts | 311° |
| 2026-05-06 17:39 | 46.00024 | 60.02060 | 33901 ft | 491 kts | 311° |
| 2026-05-06 17:39 | 46.05067 | 59.95429 | 33898 ft | 491 kts | 311° |
| 2026-05-06 17:40 | 46.10926 | 59.87702 | 33914 ft | 491 kts | 311° |
| 2026-05-06 17:40 | 46.15152 | 59.82114 | 33909 ft | 491 kts | 311° |
| 2026-05-06 17:41 | 46.20184 | 59.75445 | 33910 ft | 491 kts | 311° |
| 2026-05-06 17:41 | 46.25146 | 59.68769 | 33916 ft | 490 kts | 310° |
| 2026-05-06 17:42 | 46.29981 | 59.61826 | 33909 ft | 489 kts | 309° |
| 2026-05-06 17:42 | 46.34775 | 59.54848 | 33905 ft | 489 kts | 309° |
| 2026-05-06 17:43 | 46.39589 | 59.47880 | 33904 ft | 489 kts | 309° |
| 2026-05-06 17:43 | 46.44413 | 59.40915 | 33912 ft | 490 kts | 309° |
| 2026-05-06 17:44 | 46.49242 | 59.33932 | 33908 ft | 490 kts | 309° |
| 2026-05-06 17:44 | 46.54071 | 59.26930 | 33907 ft | 490 kts | 309° |
| 2026-05-06 17:45 | 46.58895 | 59.19914 | 33911 ft | 491 kts | 310° |
| 2026-05-06 17:45 | 46.63687 | 59.12925 | 33903 ft | 491 kts | 310° |
| 2026-05-06 17:46 | 46.68518 | 59.05861 | 33912 ft | 492 kts | 310° |
| 2026-05-06 17:46 | 46.73344 | 58.98785 | 33904 ft | 493 kts | 309° |
| 2026-05-06 17:47 | 46.78176 | 58.91680 | 33906 ft | 494 kts | 309° |
| 2026-05-06 17:47 | 46.83016 | 58.84545 | 33904 ft | 494 kts | 309° |
| 2026-05-06 17:48 | 46.87851 | 58.77398 | 33898 ft | 495 kts | 309° |
| 2026-05-06 17:48 | 46.92688 | 58.70229 | 33911 ft | 496 kts | 310° |
| 2026-05-06 17:49 | 46.97528 | 58.63035 | 33900 ft | 496 kts | 310° |
| 2026-05-06 17:49 | 47.02367 | 58.55823 | 33899 ft | 496 kts | 310° |
| 2026-05-06 17:50 | 47.07174 | 58.48639 | 33896 ft | 496 kts | 309° |
| 2026-05-06 17:50 | 47.12006 | 58.41397 | 33893 ft | 496 kts | 309° |
| 2026-05-06 17:51 | 47.16835 | 58.34140 | 33892 ft | 496 kts | 309° |
| 2026-05-06 17:51 | 47.21649 | 58.26885 | 33901 ft | 496 kts | 309° |
| 2026-05-06 17:52 | 47.26472 | 58.19597 | 33900 ft | 496 kts | 309° |
| 2026-05-06 17:52 | 47.31291 | 58.12297 | 33889 ft | 496 kts | 309° |
| 2026-05-06 17:53 | 47.36106 | 58.04994 | 33887 ft | 496 kts | 309° |
| 2026-05-06 17:53 | 47.40879 | 57.97737 | 33905 ft | 496 kts | 309° |
| 2026-05-06 17:54 | 47.45683 | 57.90410 | 33879 ft | 496 kts | 309° |
| 2026-05-06 17:54 | 47.50476 | 57.83079 | 33898 ft | 496 kts | 309° |
| 2026-05-06 17:55 | 47.55268 | 57.75726 | 33896 ft | 496 kts | 309° |
| 2026-05-06 17:55 | 47.60054 | 57.68363 | 33885 ft | 495 kts | 309° |
| 2026-05-06 17:56 | 47.64829 | 57.60999 | 33891 ft | 494 kts | 309° |
| 2026-05-06 17:56 | 47.69554 | 57.53675 | 33883 ft | 493 kts | 308° |
| 2026-05-06 17:57 | 47.74292 | 57.46303 | 33900 ft | 492 kts | 309° |
| 2026-05-06 17:57 | 47.79011 | 57.38943 | 33887 ft | 491 kts | 309° |
| 2026-05-06 17:58 | 47.83716 | 57.31585 | 33878 ft | 490 kts | 308° |
| 2026-05-06 17:58 | 47.88410 | 57.24223 | 33879 ft | 489 kts | 308° |
| 2026-05-06 17:59 | 47.93092 | 57.16859 | 33887 ft | 489 kts | 308° |
| 2026-05-06 17:59 | 47.97764 | 57.09490 | 33877 ft | 488 kts | 308° |
| 2026-05-06 18:00 | 48.02425 | 57.02117 | 33883 ft | 488 kts | 308° |
| 2026-05-06 18:00 | 48.07079 | 56.94737 | 33900 ft | 488 kts | 308° |
| 2026-05-06 18:01 | 48.11708 | 56.87372 | 33888 ft | 488 kts | 308° |
| 2026-05-06 18:01 | 48.16355 | 56.79960 | 33885 ft | 488 kts | 308° |
| 2026-05-06 18:02 | 48.21002 | 56.72526 | 33877 ft | 489 kts | 308° |
| 2026-05-06 18:02 | 48.25649 | 56.65070 | 33886 ft | 488 kts | 308° |
| 2026-05-06 18:03 | 48.30290 | 56.57603 | 33885 ft | 488 kts | 308° |
| 2026-05-06 18:03 | 48.34888 | 56.50187 | 33872 ft | 488 kts | 308° |
| 2026-05-06 18:04 | 48.39508 | 56.42712 | 33883 ft | 488 kts | 308° |
| 2026-05-06 18:04 | 48.44120 | 56.35227 | 33874 ft | 488 kts | 308° |
| 2026-05-06 18:05 | 48.48727 | 56.27730 | 33871 ft | 487 kts | 308° |
| 2026-05-06 18:05 | 48.53322 | 56.20233 | 33872 ft | 486 kts | 308° |
| 2026-05-06 18:06 | 48.57910 | 56.12728 | 33887 ft | 486 kts | 308° |
| 2026-05-06 18:06 | 48.62504 | 56.05195 | 33876 ft | 486 kts | 308° |
| 2026-05-06 18:07 | 48.67056 | 55.97709 | 33870 ft | 486 kts | 308° |
| 2026-05-06 18:07 | 48.71636 | 55.90165 | 33872 ft | 487 kts | 308° |
| 2026-05-06 18:08 | 48.76226 | 55.82612 | 33867 ft | 487 kts | 308° |
| 2026-05-06 18:08 | 48.80810 | 55.75044 | 33871 ft | 487 kts | 308° |
| 2026-05-06 18:09 | 48.85359 | 55.67509 | 33869 ft | 487 kts | 308° |
| 2026-05-06 18:09 | 48.89929 | 55.59892 | 33885 ft | 487 kts | 308° |
| 2026-05-06 18:10 | 48.94487 | 55.52257 | 33867 ft | 488 kts | 308° |
| 2026-05-06 18:10 | 48.99054 | 55.44589 | 33862 ft | 489 kts | 308° |
| 2026-05-06 18:11 | 49.03630 | 55.36885 | 33861 ft | 490 kts | 308° |
| 2026-05-06 18:11 | 49.08199 | 55.29170 | 33869 ft | 491 kts | 308° |
| 2026-05-06 18:12 | 49.12749 | 55.21464 | 33855 ft | 492 kts | 308° |
| 2026-05-06 18:12 | 49.17331 | 55.13683 | 33852 ft | 493 kts | 308° |
| 2026-05-06 18:13 | 49.21910 | 55.05880 | 33853 ft | 493 kts | 308° |
| 2026-05-06 18:13 | 49.26480 | 54.98066 | 33851 ft | 493 kts | 308° |
| 2026-05-06 18:14 | 49.31045 | 54.90238 | 33840 ft | 492 kts | 308° |
| 2026-05-06 18:14 | 49.35602 | 54.82400 | 33840 ft | 492 kts | 308° |
| 2026-05-06 18:15 | 49.40149 | 54.74556 | 33863 ft | 491 kts | 308° |
| 2026-05-06 18:15 | 49.44679 | 54.66716 | 33849 ft | 490 kts | 308° |
| 2026-05-06 18:16 | 49.49189 | 54.58889 | 33841 ft | 489 kts | 308° |
| 2026-05-06 18:16 | 49.53690 | 54.51053 | 33840 ft | 488 kts | 308° |
| 2026-05-06 18:17 | 49.58154 | 54.43257 | 33853 ft | 487 kts | 308° |
| 2026-05-06 18:17 | 49.62632 | 54.35414 | 33842 ft | 487 kts | 308° |
| 2026-05-06 18:18 | 49.67102 | 54.27560 | 33842 ft | 487 kts | 308° |
| 2026-05-06 18:18 | 49.71569 | 54.19688 | 33835 ft | 487 kts | 308° |
| 2026-05-06 18:19 | 49.76025 | 54.11811 | 33830 ft | 487 kts | 308° |
| 2026-05-06 18:19 | 49.80482 | 54.03909 | 33827 ft | 488 kts | 308° |
| 2026-05-06 18:20 | 49.84941 | 53.95979 | 33825 ft | 488 kts | 308° |
| 2026-05-06 18:20 | 49.89400 | 53.88027 | 33826 ft | 488 kts | 308° |
| 2026-05-06 18:21 | 49.93853 | 53.80059 | 33826 ft | 489 kts | 308° |
| 2026-05-06 18:21 | 49.98287 | 53.72099 | 33822 ft | 490 kts | 308° |
| 2026-05-06 18:22 | 50.02772 | 53.64022 | 33825 ft | 490 kts | 308° |
| 2026-05-06 18:22 | 50.07202 | 53.56019 | 33828 ft | 490 kts | 308° |
| 2026-05-06 18:23 | 50.11648 | 53.47962 | 33824 ft | 490 kts | 309° |
| 2026-05-06 18:23 | 50.16086 | 53.39895 | 33818 ft | 490 kts | 309° |
| 2026-05-06 18:24 | 50.20517 | 53.31815 | 33822 ft | 489 kts | 309° |
| 2026-05-06 18:24 | 50.24935 | 53.23732 | 33820 ft | 488 kts | 310° |
| 2026-05-06 18:25 | 50.29307 | 53.15709 | 33815 ft | 488 kts | 310° |
| 2026-05-06 18:25 | 50.33703 | 53.07619 | 33817 ft | 487 kts | 310° |
| 2026-05-06 18:26 | 50.38085 | 52.99528 | 33819 ft | 487 kts | 310° |
| 2026-05-06 18:26 | 50.42461 | 52.91422 | 33819 ft | 486 kts | 310° |
| 2026-05-06 18:27 | 50.46095 | 52.84673 | 33819 ft | 486 kts | 310° |
| 2026-05-06 18:27 | 50.50455 | 52.76550 | 33813 ft | 487 kts | 309° |
| 2026-05-06 18:28 | 50.54819 | 52.68395 | 33815 ft | 487 kts | 309° |
| 2026-05-06 18:28 | 50.59180 | 52.60219 | 33818 ft | 488 kts | 310° |
| 2026-05-06 18:29 | 50.63512 | 52.52071 | 33814 ft | 489 kts | 310° |
| 2026-05-06 18:29 | 50.67882 | 52.43829 | 33820 ft | 490 kts | 310° |
| 2026-05-06 18:30 | 50.72266 | 52.35575 | 33819 ft | 491 kts | 310° |
| 2026-05-06 18:30 | 50.76677 | 52.27305 | 33819 ft | 492 kts | 310° |
| 2026-05-06 18:31 | 50.81082 | 52.19021 | 33819 ft | 492 kts | 310° |
| 2026-05-06 18:31 | 50.85474 | 52.10723 | 33818 ft | 491 kts | 310° |
| 2026-05-06 18:32 | 50.89852 | 52.02422 | 33824 ft | 491 kts | 310° |
| 2026-05-06 18:32 | 50.94200 | 51.94149 | 33818 ft | 491 kts | 310° |
| 2026-05-06 18:33 | 50.98562 | 51.85826 | 33825 ft | 491 kts | 310° |
| 2026-05-06 18:33 | 51.02928 | 51.77465 | 33825 ft | 491 kts | 310° |
| 2026-05-06 18:34 | 51.07286 | 51.69093 | 33825 ft | 491 kts | 310° |
| 2026-05-06 18:34 | 51.11634 | 51.60717 | 33827 ft | 490 kts | 310° |
| 2026-05-06 18:35 | 51.16392 | 51.52998 | 33831 ft | 488 kts | 321° |
| 2026-05-06 18:35 | 51.21938 | 51.46837 | 33837 ft | 485 kts | 328° |
| 2026-05-06 18:36 | 51.27595 | 51.40952 | 33832 ft | 486 kts | 328° |
| 2026-05-06 18:36 | 51.33183 | 51.35017 | 33834 ft | 485 kts | 327° |
| 2026-05-06 18:37 | 51.38804 | 51.29012 | 33841 ft | 484 kts | 327° |
| 2026-05-06 18:37 | 51.44414 | 51.23010 | 33841 ft | 484 kts | 327° |
| 2026-05-06 18:38 | 51.50029 | 51.17050 | 33840 ft | 484 kts | 328° |
| 2026-05-06 18:38 | 51.55659 | 51.11099 | 33850 ft | 484 kts | 328° |
| 2026-05-06 18:39 | 51.61275 | 51.05131 | 33849 ft | 484 kts | 327° |
| 2026-05-06 18:40 | 51.70105 | 50.97522 | 33860 ft | 482 kts | 341° |
| 2026-05-06 18:40 | 51.76567 | 50.94655 | 33862 ft | 482 kts | 347° |
| 2026-05-06 18:41 | 51.83063 | 50.91937 | 33866 ft | 482 kts | 346° |
| 2026-05-06 18:41 | 51.89552 | 50.89129 | 33867 ft | 483 kts | 345° |
| 2026-05-06 18:42 | 51.95733 | 50.84882 | 33866 ft | 485 kts | 329° |
| 2026-05-06 18:42 | 52.01061 | 50.78166 | 33875 ft | 486 kts | 318° |
| 2026-05-06 18:43 | 52.06119 | 50.70847 | 33865 ft | 486 kts | 319° |
| 2026-05-06 18:43 | 52.11211 | 50.63598 | 33868 ft | 487 kts | 319° |
| 2026-05-06 18:44 | 52.16285 | 50.56401 | 33872 ft | 487 kts | 319° |
| 2026-05-06 18:44 | 52.21381 | 50.49150 | 33867 ft | 486 kts | 319° |
| 2026-05-06 18:45 | 52.26468 | 50.41883 | 33871 ft | 485 kts | 319° |
| 2026-05-06 18:45 | 52.31539 | 50.34613 | 33867 ft | 484 kts | 319° |
| 2026-05-06 18:46 | 52.36593 | 50.27346 | 33868 ft | 484 kts | 319° |
| 2026-05-06 18:46 | 52.41623 | 50.20091 | 33868 ft | 484 kts | 319° |
| 2026-05-06 18:47 | 52.46671 | 50.12785 | 33869 ft | 484 kts | 319° |
| 2026-05-06 18:47 | 52.51714 | 50.05466 | 33871 ft | 484 kts | 319° |
| 2026-05-06 18:48 | 52.56425 | 49.97576 | 33869 ft | 484 kts | 308° |
| 2026-05-06 18:48 | 52.60073 | 49.88308 | 33876 ft | 484 kts | 298° |
| 2026-05-06 18:49 | 52.63215 | 49.78513 | 33880 ft | 483 kts | 298° |
| 2026-05-06 18:49 | 52.66391 | 49.68750 | 33876 ft | 483 kts | 298° |
| 2026-05-06 18:50 | 52.69579 | 49.58993 | 33880 ft | 483 kts | 298° |
| 2026-05-06 18:50 | 52.72739 | 49.49296 | 33876 ft | 483 kts | 298° |
| 2026-05-06 18:51 | 52.75907 | 49.39531 | 33876 ft | 482 kts | 298° |
| 2026-05-06 18:51 | 52.79066 | 49.29748 | 33877 ft | 482 kts | 298° |
| 2026-05-06 18:52 | 52.82214 | 49.19963 | 33877 ft | 482 kts | 298° |
| 2026-05-06 18:52 | 52.85350 | 49.10173 | 33881 ft | 481 kts | 298° |
| 2026-05-06 18:53 | 52.88475 | 49.00382 | 33874 ft | 480 kts | 298° |
| 2026-05-06 18:53 | 52.91588 | 48.90588 | 33871 ft | 480 kts | 298° |
| 2026-05-06 18:54 | 52.94670 | 48.80856 | 33868 ft | 479 kts | 298° |
| 2026-05-06 18:54 | 52.97759 | 48.71047 | 33872 ft | 479 kts | 298° |
| 2026-05-06 18:55 | 53.00841 | 48.61223 | 33870 ft | 479 kts | 298° |
| 2026-05-06 18:55 | 53.03911 | 48.51395 | 33871 ft | 479 kts | 298° |
| 2026-05-06 18:56 | 53.06973 | 48.41560 | 33877 ft | 479 kts | 298° |
| 2026-05-06 18:56 | 53.10158 | 48.31910 | 33869 ft | 478 kts | 304° |
| 2026-05-06 18:57 | 53.14346 | 48.23335 | 33877 ft | 477 kts | 316° |
| 2026-05-06 18:57 | 53.19187 | 48.15756 | 33883 ft | 477 kts | 317° |
| 2026-05-06 18:58 | 53.24009 | 48.08120 | 33878 ft | 478 kts | 316° |
| 2026-05-06 18:58 | 53.28807 | 48.00429 | 33880 ft | 478 kts | 316° |
| 2026-05-06 18:59 | 53.33578 | 47.92744 | 33883 ft | 478 kts | 316° |
| 2026-05-06 18:59 | 53.38362 | 47.85018 | 33874 ft | 477 kts | 316° |
| 2026-05-06 19:00 | 53.42325 | 47.78598 | 33873 ft | 476 kts | 316° |
| 2026-05-06 19:00 | 53.47867 | 47.69597 | 33873 ft | 475 kts | 316° |
| 2026-05-06 19:01 | 53.52615 | 47.61865 | 33874 ft | 475 kts | 316° |
| 2026-05-06 19:01 | 53.57353 | 47.54129 | 33874 ft | 475 kts | 316° |
| 2026-05-06 19:02 | 53.62087 | 47.46372 | 33871 ft | 475 kts | 316° |
| 2026-05-06 19:02 | 53.66822 | 47.38587 | 33872 ft | 475 kts | 316° |
| 2026-05-06 19:03 | 53.71550 | 47.30787 | 33865 ft | 475 kts | 316° |
| 2026-05-06 19:03 | 53.76243 | 47.23020 | 33873 ft | 475 kts | 316° |
| 2026-05-06 19:04 | 53.80964 | 47.15173 | 33870 ft | 476 kts | 315° |
| 2026-05-06 19:04 | 53.85676 | 47.07299 | 33869 ft | 476 kts | 315° |
| 2026-05-06 19:05 | 53.90384 | 46.99405 | 33877 ft | 476 kts | 315° |
| 2026-05-06 19:05 | 53.95091 | 46.91488 | 33863 ft | 475 kts | 315° |
| 2026-05-06 19:06 | 53.99772 | 46.83591 | 33865 ft | 473 kts | 315° |
| 2026-05-06 19:06 | 54.04435 | 46.75699 | 33869 ft | 472 kts | 315° |
| 2026-05-06 19:07 | 54.09088 | 46.67812 | 33873 ft | 472 kts | 315° |
| 2026-05-06 19:07 | 54.13704 | 46.59964 | 33869 ft | 472 kts | 315° |
| 2026-05-06 19:08 | 54.18345 | 46.52045 | 33872 ft | 472 kts | 315° |
| 2026-05-06 19:08 | 54.22986 | 46.44098 | 33873 ft | 472 kts | 315° |
| 2026-05-06 19:09 | 54.27625 | 46.36127 | 33874 ft | 472 kts | 315° |
| 2026-05-06 19:09 | 54.32258 | 46.28139 | 33870 ft | 472 kts | 315° |
| 2026-05-06 19:10 | 54.36876 | 46.20151 | 33873 ft | 471 kts | 314° |
| 2026-05-06 19:10 | 54.41448 | 46.12218 | 33872 ft | 470 kts | 314° |
| 2026-05-06 19:11 | 54.46040 | 46.04211 | 33871 ft | 470 kts | 314° |
| 2026-05-06 19:11 | 54.50615 | 45.96202 | 33878 ft | 469 kts | 314° |
| 2026-05-06 19:12 | 54.55177 | 45.88185 | 33872 ft | 468 kts | 314° |
| 2026-05-06 19:12 | 54.59731 | 45.80157 | 33872 ft | 467 kts | 314° |
| 2026-05-06 19:13 | 54.64269 | 45.72129 | 33875 ft | 467 kts | 314° |
| 2026-05-06 19:13 | 54.68798 | 45.64091 | 33873 ft | 467 kts | 313° |
| 2026-05-06 19:14 | 54.73323 | 45.56038 | 33869 ft | 466 kts | 314° |
| 2026-05-06 19:14 | 54.78212 | 45.48787 | 33866 ft | 467 kts | 324° |
| 2026-05-06 19:15 | 54.83592 | 45.42467 | 33872 ft | 467 kts | 324° |
| 2026-05-06 19:15 | 54.88933 | 45.36042 | 33871 ft | 467 kts | 324° |
| 2026-05-06 19:16 | 54.93375 | 45.30646 | 33869 ft | 468 kts | 323° |
| 2026-05-06 19:16 | 54.98712 | 45.24135 | 33880 ft | 468 kts | 323° |
| 2026-05-06 19:17 | 55.04048 | 45.17610 | 33870 ft | 469 kts | 323° |
| 2026-05-06 19:17 | 55.09382 | 45.11067 | 33869 ft | 468 kts | 323° |
| 2026-05-06 19:18 | 55.14715 | 45.04505 | 33876 ft | 468 kts | 323° |
| 2026-05-06 19:18 | 55.20001 | 44.97977 | 33865 ft | 468 kts | 323° |
| 2026-05-06 19:19 | 55.25316 | 44.91394 | 33872 ft | 467 kts | 323° |
| 2026-05-06 19:19 | 55.30331 | 44.84248 | 33865 ft | 463 kts | 310° |
| 2026-05-06 19:20 | 55.33966 | 44.75001 | 33870 ft | 461 kts | 295° |
| 2026-05-06 19:20 | 55.36626 | 44.64738 | 33873 ft | 462 kts | 294° |
| 2026-05-06 19:21 | 55.39347 | 44.54454 | 33872 ft | 464 kts | 295° |
| 2026-05-06 19:21 | 55.42076 | 44.44216 | 33872 ft | 465 kts | 295° |
| 2026-05-06 19:22 | 55.44818 | 44.33890 | 33871 ft | 466 kts | 295° |
| 2026-05-06 19:22 | 55.47555 | 44.23527 | 33880 ft | 466 kts | 295° |
| 2026-05-06 19:23 | 55.50278 | 44.13161 | 33877 ft | 466 kts | 295° |
| 2026-05-06 19:23 | 55.52995 | 44.02779 | 33869 ft | 466 kts | 295° |
| 2026-05-06 19:24 | 55.55701 | 43.92386 | 33871 ft | 466 kts | 295° |
| 2026-05-06 19:24 | 55.58403 | 43.81969 | 33878 ft | 466 kts | 294° |
| 2026-05-06 19:25 | 55.61318 | 43.71740 | 33884 ft | 465 kts | 300° |
| 2026-05-06 19:25 | 55.64612 | 43.61883 | 33881 ft | 465 kts | 301° |
| 2026-05-06 19:26 | 55.67897 | 43.52021 | 33878 ft | 464 kts | 300° |
| 2026-05-06 19:26 | 55.71097 | 43.42177 | 33883 ft | 464 kts | 300° |
| 2026-05-06 19:27 | 55.74297 | 43.32236 | 33886 ft | 463 kts | 300° |
| 2026-05-06 19:27 | 55.77486 | 43.22304 | 33899 ft | 462 kts | 300° |
| 2026-05-06 19:28 | 55.80767 | 43.12487 | 33886 ft | 462 kts | 304° |
| 2026-05-06 19:28 | 55.84477 | 43.03186 | 33891 ft | 460 kts | 305° |
| 2026-05-06 19:29 | 55.88198 | 42.93923 | 33890 ft | 460 kts | 305° |
| 2026-05-06 19:29 | 55.91879 | 42.84588 | 33896 ft | 460 kts | 304° |
| 2026-05-06 19:30 | 55.95539 | 42.75212 | 33895 ft | 460 kts | 304° |
| 2026-05-06 19:30 | 55.99191 | 42.65818 | 33898 ft | 460 kts | 304° |
| 2026-05-06 19:31 | 56.02844 | 42.56398 | 33903 ft | 461 kts | 304° |
| 2026-05-06 19:31 | 56.08167 | 42.42151 | 33902 ft | 461 kts | 303° |
| 2026-05-06 19:32 | 56.11658 | 42.32512 | 33909 ft | 461 kts | 302° |
| 2026-05-06 19:32 | 56.15153 | 42.22894 | 33901 ft | 460 kts | 303° |
| 2026-05-06 19:33 | 56.18642 | 42.13282 | 33905 ft | 459 kts | 302° |
| 2026-05-06 19:33 | 56.22324 | 42.03933 | 33907 ft | 459 kts | 307° |
| 2026-05-06 19:34 | 56.26259 | 41.94913 | 33911 ft | 458 kts | 307° |
| 2026-05-06 19:34 | 56.30183 | 41.85879 | 33909 ft | 458 kts | 307° |
| 2026-05-06 19:35 | 56.34062 | 41.76789 | 33910 ft | 457 kts | 307° |
| 2026-05-06 19:35 | 56.37895 | 41.67720 | 33913 ft | 457 kts | 306° |
| 2026-05-06 19:36 | 56.41746 | 41.58573 | 33912 ft | 457 kts | 306° |
| 2026-05-06 19:36 | 56.45582 | 41.49431 | 33927 ft | 456 kts | 306° |
| 2026-05-06 19:37 | 56.49412 | 41.40272 | 33909 ft | 455 kts | 306° |
| 2026-05-06 19:37 | 56.53216 | 41.31139 | 33915 ft | 454 kts | 306° |
| 2026-05-06 19:38 | 56.57014 | 41.21989 | 33910 ft | 453 kts | 306° |
| 2026-05-06 19:38 | 56.60604 | 41.12693 | 33913 ft | 452 kts | 299° |
| 2026-05-06 19:39 | 56.63239 | 41.02353 | 33919 ft | 451 kts | 289° |
| 2026-05-06 19:39 | 56.65085 | 40.91482 | 33925 ft | 450 kts | 287° |
| 2026-05-06 19:40 | 56.66924 | 40.80620 | 33917 ft | 449 kts | 287° |
| 2026-05-06 19:40 | 56.68772 | 40.69762 | 33929 ft | 449 kts | 287° |
| 2026-05-06 19:41 | 56.70614 | 40.58901 | 33927 ft | 449 kts | 287° |
| 2026-05-06 19:41 | 56.72449 | 40.48015 | 33943 ft | 449 kts | 287° |
| 2026-05-06 19:42 | 56.74267 | 40.37155 | 33921 ft | 448 kts | 287° |
| 2026-05-06 19:42 | 56.76071 | 40.26311 | 33902 ft | 447 kts | 287° |
| 2026-05-06 19:43 | 56.77857 | 40.15514 | 33930 ft | 448 kts | 286° |
| 2026-05-06 19:43 | 56.79647 | 40.04621 | 33938 ft | 449 kts | 286° |
| 2026-05-06 19:44 | 56.81439 | 39.93661 | 33950 ft | 451 kts | 286° |
| 2026-05-06 19:44 | 56.83227 | 39.82671 | 33940 ft | 451 kts | 286° |
| 2026-05-06 19:45 | 56.85011 | 39.71685 | 33937 ft | 451 kts | 286° |
| 2026-05-06 19:45 | 56.86784 | 39.60705 | 33937 ft | 450 kts | 286° |
| 2026-05-06 19:46 | 56.88534 | 39.49793 | 33942 ft | 450 kts | 285° |
| 2026-05-06 19:46 | 56.90282 | 39.38818 | 33943 ft | 449 kts | 285° |
| 2026-05-06 19:47 | 56.92019 | 39.27844 | 33944 ft | 448 kts | 285° |
| 2026-05-06 19:47 | 56.93742 | 39.16884 | 33945 ft | 447 kts | 285° |
| 2026-05-06 19:48 | 56.95453 | 39.05938 | 33950 ft | 447 kts | 285° |
| 2026-05-06 19:48 | 56.97152 | 38.94990 | 33946 ft | 446 kts | 285° |
| 2026-05-06 19:49 | 56.98841 | 38.84038 | 33971 ft | 446 kts | 284° |
| 2026-05-06 19:49 | 57.00510 | 38.73144 | 33972 ft | 446 kts | 284° |
| 2026-05-06 19:50 | 57.02180 | 38.62165 | 33949 ft | 446 kts | 284° |
| 2026-05-06 19:50 | 57.03842 | 38.51168 | 33956 ft | 447 kts | 284° |
| 2026-05-06 19:51 | 57.05497 | 38.40148 | 33962 ft | 448 kts | 284° |
| 2026-05-06 19:51 | 57.07144 | 38.29107 | 33960 ft | 448 kts | 284° |
| 2026-05-06 19:52 | 57.10544 | 38.06085 | 34008 ft | 448 kts | 283° |
| 2026-05-06 19:52 | 57.24940 | 37.25226 | 33988 ft | 449 kts | 289° |
| 2026-05-06 19:53 | 57.42796 | 36.39012 | 33997 ft | 449 kts | 288° |
| 2026-05-06 19:53 | 57.59874 | 35.53579 | 34006 ft | 449 kts | 287° |
| 2026-05-06 19:54 | 57.75275 | 34.88417 | 33987 ft | 461 kts | 304° |
| 2026-05-06 19:54 | 58.08171 | 34.17549 | 34006 ft | 459 kts | 304° |
| 2026-05-06 19:55 | 58.31604 | 33.65579 | 34007 ft | 457 kts | 303° |
| 2026-05-06 19:55 | 58.35706 | 33.56344 | 34003 ft | 457 kts | 303° |
| 2026-05-06 19:56 | 58.39808 | 33.47082 | 34041 ft | 456 kts | 303° |
| 2026-05-06 19:56 | 58.43886 | 33.37847 | 34001 ft | 454 kts | 303° |
| 2026-05-06 19:57 | 58.47934 | 33.28639 | 33995 ft | 452 kts | 303° |
| 2026-05-06 19:57 | 58.51964 | 33.19438 | 33992 ft | 449 kts | 303° |
| 2026-05-06 19:58 | 58.55883 | 33.10475 | 33644 ft | 434 kts | 303° |
| 2026-05-06 19:58 | 58.57819 | 33.06023 | 32918 ft | 434 kts | 303° |
| 2026-05-06 19:58 | 58.59748 | 33.01571 | 32053 ft | 435 kts | 302° |
| 2026-05-06 19:59 | 58.61692 | 32.97069 | 31090 ft | 439 kts | 302° |
| 2026-05-06 19:59 | 58.63638 | 32.92559 | 30371 ft | 438 kts | 302° |
| 2026-05-06 19:59 | 58.65578 | 32.88063 | 29617 ft | 435 kts | 302° |
| 2026-05-06 19:59 | 58.67502 | 32.83599 | 28894 ft | 432 kts | 302° |
| 2026-05-06 20:00 | 58.69409 | 32.79171 | 28219 ft | 428 kts | 302° |
| 2026-05-06 20:00 | 58.71300 | 32.74769 | 27565 ft | 423 kts | 302° |
| 2026-05-06 20:00 | 58.73142 | 32.70470 | 26912 ft | 420 kts | 302° |
| 2026-05-06 20:00 | 58.74992 | 32.66140 | 26287 ft | 417 kts | 302° |
| 2026-05-06 20:01 | 58.76848 | 32.61786 | 25629 ft | 414 kts | 302° |
| 2026-05-06 20:01 | 58.78644 | 32.57566 | 25012 ft | 411 kts | 302° |
| 2026-05-06 20:01 | 58.80451 | 32.53312 | 24390 ft | 409 kts | 302° |
| 2026-05-06 20:01 | 58.82246 | 32.49081 | 23773 ft | 407 kts | 302° |
| 2026-05-06 20:02 | 58.84031 | 32.44864 | 23074 ft | 405 kts | 302° |
| 2026-05-06 20:02 | 58.85807 | 32.40663 | 22407 ft | 402 kts | 302° |
| 2026-05-06 20:02 | 58.87565 | 32.36498 | 21798 ft | 398 kts | 302° |
| 2026-05-06 20:02 | 58.89305 | 32.32372 | 21181 ft | 394 kts | 302° |
| 2026-05-06 20:03 | 58.90471 | 32.29600 | 20769 ft | 392 kts | 302° |
| 2026-05-06 20:03 | 58.92164 | 32.25568 | 20199 ft | 389 kts | 302° |
| 2026-05-06 20:03 | 58.93860 | 32.21520 | 19621 ft | 386 kts | 302° |
| 2026-05-06 20:03 | 58.96117 | 32.16126 | 18844 ft | 383 kts | 302° |
| 2026-05-06 20:04 | 58.97225 | 32.13471 | 18484 ft | 382 kts | 302° |
| 2026-05-06 20:04 | 58.98891 | 32.09477 | 17841 ft | 381 kts | 302° |
| 2026-05-06 20:04 | 59.00549 | 32.05492 | 17217 ft | 378 kts | 302° |
| 2026-05-06 20:04 | 59.02196 | 32.01530 | 16626 ft | 375 kts | 302° |
| 2026-05-06 20:05 | 59.03826 | 31.97603 | 16208 ft | 371 kts | 302° |
| 2026-05-06 20:05 | 59.05467 | 31.93633 | 16050 ft | 379 kts | 303° |
| 2026-05-06 20:05 | 59.07109 | 31.89667 | 16008 ft | 374 kts | 303° |
| 2026-05-06 20:05 | 59.08730 | 31.85750 | 16000 ft | 370 kts | 302° |
| 2026-05-06 20:06 | 59.10340 | 31.81844 | 16006 ft | 371 kts | 303° |
| 2026-05-06 20:06 | 59.12049 | 31.78042 | 16006 ft | 376 kts | 308° |
| 2026-05-06 20:06 | 59.13936 | 31.74484 | 16015 ft | 379 kts | 310° |
| 2026-05-06 20:06 | 59.15873 | 31.70986 | 16013 ft | 380 kts | 310° |
| 2026-05-06 20:07 | 59.17801 | 31.67452 | 16029 ft | 379 kts | 310° |
| 2026-05-06 20:07 | 59.19653 | 31.63838 | 15736 ft | 375 kts | 308° |
| 2026-05-06 20:07 | 59.21462 | 31.60191 | 15218 ft | 372 kts | 308° |
| 2026-05-06 20:07 | 59.23251 | 31.56560 | 14667 ft | 369 kts | 308° |
| 2026-05-06 20:08 | 59.25027 | 31.52958 | 14092 ft | 367 kts | 308° |
| 2026-05-06 20:08 | 59.26798 | 31.49374 | 13463 ft | 366 kts | 308° |
| 2026-05-06 20:08 | 59.28541 | 31.45853 | 12901 ft | 363 kts | 309° |
| 2026-05-06 20:08 | 59.30312 | 31.42278 | 12425 ft | 357 kts | 310° |
| 2026-05-06 20:09 | 59.31980 | 31.38917 | 12354 ft | 342 kts | 310° |
| 2026-05-06 20:09 | 59.33604 | 31.35653 | 12255 ft | 327 kts | 310° |
| 2026-05-06 20:09 | 59.35151 | 31.32540 | 12058 ft | 299 kts | 310° |
| 2026-05-06 20:09 | 59.36526 | 31.29772 | 11702 ft | 277 kts | 310° |
| 2026-05-06 20:10 | 59.37840 | 31.27112 | 11131 ft | 266 kts | 309° |
| 2026-05-06 20:10 | 59.39114 | 31.24521 | 10454 ft | 262 kts | 309° |
| 2026-05-06 20:10 | 59.40377 | 31.21946 | 9940 ft | 262 kts | 310° |
| 2026-05-06 20:10 | 59.41628 | 31.19395 | 9635 ft | 259 kts | 310° |
| 2026-05-06 20:11 | 59.42874 | 31.16855 | 9340 ft | 257 kts | 310° |
| 2026-05-06 20:11 | 59.44111 | 31.14330 | 9035 ft | 255 kts | 310° |
| 2026-05-06 20:11 | 59.45336 | 31.11829 | 8727 ft | 253 kts | 311° |
| 2026-05-06 20:11 | 59.46551 | 31.09347 | 8430 ft | 251 kts | 311° |
| 2026-05-06 20:12 | 59.47759 | 31.06877 | 8127 ft | 250 kts | 311° |
| 2026-05-06 20:12 | 59.48957 | 31.04424 | 7844 ft | 248 kts | 311° |
| 2026-05-06 20:12 | 59.50154 | 31.01971 | 7567 ft | 248 kts | 312° |
| 2026-05-06 20:12 | 59.51307 | 30.99604 | 7276 ft | 252 kts | 312° |
| 2026-05-06 20:13 | 59.52109 | 30.97958 | 7095 ft | 256 kts | 312° |
| 2026-05-06 20:13 | 59.53352 | 30.95469 | 6788 ft | 258 kts | 316° |
| 2026-05-06 20:13 | 59.54725 | 30.93171 | 6481 ft | 258 kts | 320° |
| 2026-05-06 20:13 | 59.56131 | 30.90950 | 6163 ft | 258 kts | 320° |
| 2026-05-06 20:14 | 59.57527 | 30.88738 | 5853 ft | 257 kts | 320° |
| 2026-05-06 20:14 | 59.58914 | 30.86522 | 5531 ft | 256 kts | 320° |
| 2026-05-06 20:14 | 59.60290 | 30.84303 | 5230 ft | 255 kts | 320° |
| 2026-05-06 20:14 | 59.61645 | 30.82107 | 5084 ft | 247 kts | 320° |
| 2026-05-06 20:15 | 59.62963 | 30.79961 | 5032 ft | 246 kts | 320° |
| 2026-05-06 20:15 | 59.64298 | 30.77780 | 5033 ft | 252 kts | 321° |
| 2026-05-06 20:15 | 59.65639 | 30.75584 | 5037 ft | 254 kts | 321° |
| 2026-05-06 20:15 | 59.67000 | 30.73347 | 4989 ft | 253 kts | 321° |
| 2026-05-06 20:16 | 59.68350 | 30.71124 | 4758 ft | 252 kts | 321° |
| 2026-05-06 20:16 | 59.69693 | 30.68910 | 4482 ft | 249 kts | 321° |
| 2026-05-06 20:16 | 59.70996 | 30.66762 | 4380 ft | 240 kts | 321° |
| 2026-05-06 20:16 | 59.72281 | 30.64639 | 3963 ft | 244 kts | 321° |
| 2026-05-06 20:17 | 59.73581 | 30.62490 | 3401 ft | 240 kts | 321° |
| 2026-05-06 20:17 | 59.74846 | 30.60398 | 2873 ft | 233 kts | 321° |
| 2026-05-06 20:17 | 59.75997 | 30.58270 | 2557 ft | 218 kts | 306° |
| 2026-05-06 20:17 | 59.76476 | 30.55579 | 2309 ft | 202 kts | 275° |
| 2026-05-06 20:18 | 59.76653 | 30.52915 | 2151 ft | 187 kts | 291° |
| 2026-05-06 20:18 | 59.77087 | 30.50531 | 2054 ft | 179 kts | 288° |
| 2026-05-06 20:18 | 59.77424 | 30.48200 | 2013 ft | 176 kts | 289° |
| 2026-05-06 20:18 | 59.77781 | 30.45933 | 1852 ft | 170 kts | 289° |
| 2026-05-06 20:19 | 59.78115 | 30.43752 | 1560 ft | 160 kts | 288° |
| 2026-05-06 20:19 | 59.78411 | 30.41684 | 1204 ft | 150 kts | 287° |
| 2026-05-06 20:19 | 59.78684 | 30.39711 | 1082 ft | 150 kts | 287° |
| 2026-05-06 20:19 | 59.78992 | 30.37732 | 954 ft | 150 kts | 289° |
| 2026-05-06 20:20 | 59.79297 | 30.35753 | 736 ft | 148 kts | 288° |
| 2026-05-06 20:20 | 59.79577 | 30.33825 | 480 ft | 143 kts | 287° |
| 2026-05-06 20:20 | 59.79865 | 30.31926 | 272 ft | 144 kts | 288° |
| 2026-05-06 20:20 | 59.80144 | 30.30051 | 95 ft | 139 kts | 288° |
| 2026-05-06 20:21 | 59.80375 | 30.28561 | 87 ft | 69 kts | 286° |
| 2026-05-06 20:21 | 59.80442 | 30.28018 | 86 ft | 34 kts | 276° |
| 2026-05-06 20:21 | 59.80438 | 30.27828 | 86 ft | 23 kts | 259° |
| 2026-05-06 20:21 | 59.80407 | 30.27622 | 88 ft | 0 kts | 251° |
| 2026-05-06 20:23 | 59.80382 | 30.27477 | 89 ft | 26 kts | 251° |
| 2026-05-06 20:23 | 59.80347 | 30.27233 | 87 ft | 5 kts | 270° |
| 2026-05-06 20:23 | 59.80379 | 30.26965 | 90 ft | 14 kts | 287° |
| 2026-05-06 20:24 | 59.80377 | 30.26828 | 88 ft | 6 kts | 229° |
| 2026-05-06 20:24 | 59.80338 | 30.26793 | 87 ft | 7 kts | 197° |
| 2026-05-06 20:24 | 59.80262 | 30.26745 | 86 ft | 20 kts | 197° |
| 2026-05-06 20:24 | 59.80139 | 30.26671 | 88 ft | 15 kts | 197° |
| 2026-05-06 20:25 | 59.80100 | 30.26648 | 91 ft | 6 kts | 193° |
| 2026-05-06 20:25 | 59.80063 | 30.26682 | 90 ft | 6 kts | 133° |
| 2026-05-06 20:25 | 59.80040 | 30.26765 | 90 ft | 7 kts | 107° |
| 2026-05-06 20:25 | 59.80036 | 30.26796 | 89 ft | 0 kts | 107° |
| 2026-05-06 20:26 | 59.80034 | 30.26807 | 89 ft | 0 kts | 107° |